<?xml version="1.0" encoding="UTF-8" standalone="no" ?>
<gpx xmlns="http://www.topografix.com/GPX/1/1" xmlns:xsi="http://www.w3.org/2001/XMLSchema-instance" xsi:schemaLocation="http://www.topografix.com/GPX/1/1 http://www.topografix.com/GPX/1/1/gpx.xsd" version="1.1" creator="VisuGPX - https://www.visugpx.com">
  <metadata>
    <name>20210909</name>
  </metadata>
  <trk>
    <name><![CDATA[20210909]]></name>
    <extensions>
      <line xmlns="http://www.topografix.com/GPX/gpx_style/0/2">
        <color>0000FF</color>
        <width>4</width>
      </line>
    </extensions>
    <trkseg>
      <trkpt lat="49.59622" lon="1.11013">
        <ele>94</ele>
        <time>2021-07-01T11:08:13Z</time>
      </trkpt>
      <trkpt lat="49.59622" lon="1.11014">
        <ele>94</ele>
        <time>2021-07-01T11:08:14Z</time>
      </trkpt>
      <trkpt lat="49.59618" lon="1.11007">
        <ele>94</ele>
        <time>2021-07-01T11:08:39Z</time>
      </trkpt>
      <trkpt lat="49.59628" lon="1.11006">
        <ele>94</ele>
        <time>2021-07-01T11:09:02Z</time>
      </trkpt>
      <trkpt lat="49.59632" lon="1.11011">
        <ele>94</ele>
        <time>2021-07-01T11:09:26Z</time>
      </trkpt>
      <trkpt lat="49.59637" lon="1.11034">
        <ele>94</ele>
        <time>2021-07-01T11:09:43Z</time>
      </trkpt>
      <trkpt lat="49.59639" lon="1.11038">
        <ele>94</ele>
        <time>2021-07-01T11:09:53Z</time>
      </trkpt>
      <trkpt lat="49.59644" lon="1.11045">
        <ele>94</ele>
        <time>2021-07-01T11:09:58Z</time>
      </trkpt>
      <trkpt lat="49.59656" lon="1.11056">
        <ele>94</ele>
        <time>2021-07-01T11:10:14Z</time>
      </trkpt>
      <trkpt lat="49.59654" lon="1.11056">
        <ele>94</ele>
        <time>2021-07-01T11:10:56Z</time>
      </trkpt>
      <trkpt lat="49.59655" lon="1.11058">
        <ele>94</ele>
        <time>2021-07-01T11:11:07Z</time>
      </trkpt>
      <trkpt lat="49.59667" lon="1.11069">
        <ele>93</ele>
        <time>2021-07-01T11:11:17Z</time>
      </trkpt>
      <trkpt lat="49.59671" lon="1.11072">
        <ele>93</ele>
        <time>2021-07-01T11:11:21Z</time>
      </trkpt>
      <trkpt lat="49.59678" lon="1.11076">
        <ele>92</ele>
        <time>2021-07-01T11:11:39Z</time>
      </trkpt>
      <trkpt lat="49.59678" lon="1.11077">
        <ele>92</ele>
        <time>2021-07-01T11:11:46Z</time>
      </trkpt>
      <trkpt lat="49.59689" lon="1.11083">
        <ele>92</ele>
        <time>2021-07-01T11:11:56Z</time>
      </trkpt>
      <trkpt lat="49.59693" lon="1.11085">
        <ele>92</ele>
        <time>2021-07-01T11:12:00Z</time>
      </trkpt>
      <trkpt lat="49.59711" lon="1.11087">
        <ele>91</ele>
        <time>2021-07-01T11:12:16Z</time>
      </trkpt>
      <trkpt lat="49.59715" lon="1.11087">
        <ele>91</ele>
        <time>2021-07-01T11:12:19Z</time>
      </trkpt>
      <trkpt lat="49.5974" lon="1.11086">
        <ele>91</ele>
        <time>2021-07-01T11:12:41Z</time>
      </trkpt>
      <trkpt lat="49.59759" lon="1.11082">
        <ele>92</ele>
        <time>2021-07-01T11:12:57Z</time>
      </trkpt>
      <trkpt lat="49.59768" lon="1.11075">
        <ele>92</ele>
        <time>2021-07-01T11:13:11Z</time>
      </trkpt>
      <trkpt lat="49.59794" lon="1.11059">
        <ele>93</ele>
        <time>2021-07-01T11:13:29Z</time>
      </trkpt>
      <trkpt lat="49.59799" lon="1.11058">
        <ele>93</ele>
        <time>2021-07-01T11:13:33Z</time>
      </trkpt>
      <trkpt lat="49.59811" lon="1.11044">
        <ele>93</ele>
        <time>2021-07-01T11:13:48Z</time>
      </trkpt>
      <trkpt lat="49.59818" lon="1.1104">
        <ele>93</ele>
        <time>2021-07-01T11:13:57Z</time>
      </trkpt>
      <trkpt lat="49.59828" lon="1.11033">
        <ele>93</ele>
        <time>2021-07-01T11:14:05Z</time>
      </trkpt>
      <trkpt lat="49.59831" lon="1.1103">
        <ele>93</ele>
        <time>2021-07-01T11:14:07Z</time>
      </trkpt>
      <trkpt lat="49.59831" lon="1.11029">
        <ele>93</ele>
        <time>2021-07-01T11:14:08Z</time>
      </trkpt>
      <trkpt lat="49.59832" lon="1.11027">
        <ele>93</ele>
        <time>2021-07-01T11:14:09Z</time>
      </trkpt>
      <trkpt lat="49.59832" lon="1.11026">
        <ele>93</ele>
        <time>2021-07-01T11:14:10Z</time>
      </trkpt>
      <trkpt lat="49.59833" lon="1.11024">
        <ele>93</ele>
        <time>2021-07-01T11:14:11Z</time>
      </trkpt>
      <trkpt lat="49.59834" lon="1.11023">
        <ele>93</ele>
        <time>2021-07-01T11:14:12Z</time>
      </trkpt>
      <trkpt lat="49.59835" lon="1.11022">
        <ele>93</ele>
        <time>2021-07-01T11:14:13Z</time>
      </trkpt>
      <trkpt lat="49.59836" lon="1.1102">
        <ele>93</ele>
        <time>2021-07-01T11:14:14Z</time>
      </trkpt>
      <trkpt lat="49.59836" lon="1.11019">
        <ele>93</ele>
        <time>2021-07-01T11:14:15Z</time>
      </trkpt>
      <trkpt lat="49.59838" lon="1.11018">
        <ele>93</ele>
        <time>2021-07-01T11:14:16Z</time>
      </trkpt>
      <trkpt lat="49.59839" lon="1.11018">
        <ele>93</ele>
        <time>2021-07-01T11:14:17Z</time>
      </trkpt>
      <trkpt lat="49.5984" lon="1.11017">
        <ele>93</ele>
        <time>2021-07-01T11:14:18Z</time>
      </trkpt>
      <trkpt lat="49.59847" lon="1.11013">
        <ele>93</ele>
        <time>2021-07-01T11:14:30Z</time>
      </trkpt>
      <trkpt lat="49.59848" lon="1.10979">
        <ele>94</ele>
        <time>2021-07-01T11:14:51Z</time>
      </trkpt>
      <trkpt lat="49.59849" lon="1.10948">
        <ele>97</ele>
        <time>2021-07-01T11:15:14Z</time>
      </trkpt>
      <trkpt lat="49.59847" lon="1.10945">
        <ele>97</ele>
        <time>2021-07-01T11:15:22Z</time>
      </trkpt>
      <trkpt lat="49.59844" lon="1.10945">
        <ele>97</ele>
        <time>2021-07-01T11:15:39Z</time>
      </trkpt>
      <trkpt lat="49.59842" lon="1.10944">
        <ele>97</ele>
        <time>2021-07-01T11:15:41Z</time>
      </trkpt>
      <trkpt lat="49.59831" lon="1.10923">
        <ele>99</ele>
        <time>2021-07-01T11:16:00Z</time>
      </trkpt>
      <trkpt lat="49.59827" lon="1.10915">
        <ele>100</ele>
        <time>2021-07-01T11:16:05Z</time>
      </trkpt>
      <trkpt lat="49.5982" lon="1.10911">
        <ele>101</ele>
        <time>2021-07-01T11:16:14Z</time>
      </trkpt>
      <trkpt lat="49.59816" lon="1.1091">
        <ele>101</ele>
        <time>2021-07-01T11:16:17Z</time>
      </trkpt>
      <trkpt lat="49.59796" lon="1.10905">
        <ele>101</ele>
        <time>2021-07-01T11:16:32Z</time>
      </trkpt>
      <trkpt lat="49.59792" lon="1.10901">
        <ele>100</ele>
        <time>2021-07-01T11:16:37Z</time>
      </trkpt>
      <trkpt lat="49.59788" lon="1.10893">
        <ele>100</ele>
        <time>2021-07-01T11:16:43Z</time>
      </trkpt>
      <trkpt lat="49.59793" lon="1.10886">
        <ele>101</ele>
        <time>2021-07-01T11:16:48Z</time>
      </trkpt>
      <trkpt lat="49.5979" lon="1.1085">
        <ele>104</ele>
        <time>2021-07-01T11:17:05Z</time>
      </trkpt>
      <trkpt lat="49.59798" lon="1.10844">
        <ele>105</ele>
        <time>2021-07-01T11:17:15Z</time>
      </trkpt>
      <trkpt lat="49.59801" lon="1.10847">
        <ele>105</ele>
        <time>2021-07-01T11:17:18Z</time>
      </trkpt>
      <trkpt lat="49.59811" lon="1.1086">
        <ele>104</ele>
        <time>2021-07-01T11:17:25Z</time>
      </trkpt>
      <trkpt lat="49.59828" lon="1.10879">
        <ele>103</ele>
        <time>2021-07-01T11:17:40Z</time>
      </trkpt>
      <trkpt lat="49.59845" lon="1.10861">
        <ele>104</ele>
        <time>2021-07-01T11:17:55Z</time>
      </trkpt>
      <trkpt lat="49.59842" lon="1.1086">
        <ele>104</ele>
        <time>2021-07-01T11:18:07Z</time>
      </trkpt>
      <trkpt lat="49.59846" lon="1.1086">
        <ele>104</ele>
        <time>2021-07-01T11:18:11Z</time>
      </trkpt>
      <trkpt lat="49.59856" lon="1.10856">
        <ele>104</ele>
        <time>2021-07-01T11:18:16Z</time>
      </trkpt>
      <trkpt lat="49.59875" lon="1.10848">
        <ele>103</ele>
        <time>2021-07-01T11:18:32Z</time>
      </trkpt>
      <trkpt lat="49.59876" lon="1.10849">
        <ele>103</ele>
        <time>2021-07-01T11:18:33Z</time>
      </trkpt>
      <trkpt lat="49.59892" lon="1.10857">
        <ele>101</ele>
        <time>2021-07-01T11:18:50Z</time>
      </trkpt>
      <trkpt lat="49.59906" lon="1.10869">
        <ele>100</ele>
        <time>2021-07-01T11:19:03Z</time>
      </trkpt>
      <trkpt lat="49.59926" lon="1.10892">
        <ele>97</ele>
        <time>2021-07-01T11:19:24Z</time>
      </trkpt>
      <trkpt lat="49.5994" lon="1.10905">
        <ele>96</ele>
        <time>2021-07-01T11:19:39Z</time>
      </trkpt>
      <trkpt lat="49.59955" lon="1.10908">
        <ele>95</ele>
        <time>2021-07-01T11:19:53Z</time>
      </trkpt>
      <trkpt lat="49.59964" lon="1.10901">
        <ele>95</ele>
        <time>2021-07-01T11:20:07Z</time>
      </trkpt>
      <trkpt lat="49.59968" lon="1.10897">
        <ele>95</ele>
        <time>2021-07-01T11:20:25Z</time>
      </trkpt>
      <trkpt lat="49.59963" lon="1.10881">
        <ele>96</ele>
        <time>2021-07-01T11:20:36Z</time>
      </trkpt>
      <trkpt lat="49.59963" lon="1.10877">
        <ele>97</ele>
        <time>2021-07-01T11:20:40Z</time>
      </trkpt>
      <trkpt lat="49.59959" lon="1.10877">
        <ele>97</ele>
        <time>2021-07-01T11:20:46Z</time>
      </trkpt>
      <trkpt lat="49.59959" lon="1.10872">
        <ele>97</ele>
        <time>2021-07-01T11:20:50Z</time>
      </trkpt>
      <trkpt lat="49.59969" lon="1.10856">
        <ele>98</ele>
        <time>2021-07-01T11:21:00Z</time>
      </trkpt>
      <trkpt lat="49.59973" lon="1.10836">
        <ele>100</ele>
        <time>2021-07-01T11:21:12Z</time>
      </trkpt>
      <trkpt lat="49.59973" lon="1.10826">
        <ele>101</ele>
        <time>2021-07-01T11:21:18Z</time>
      </trkpt>
      <trkpt lat="49.59975" lon="1.10801">
        <ele>104</ele>
        <time>2021-07-01T11:21:33Z</time>
      </trkpt>
      <trkpt lat="49.59991" lon="1.10769">
        <ele>108</ele>
        <time>2021-07-01T11:21:50Z</time>
      </trkpt>
      <trkpt lat="49.5999" lon="1.10767">
        <ele>108</ele>
        <time>2021-07-01T11:21:53Z</time>
      </trkpt>
      <trkpt lat="49.6" lon="1.1076">
        <ele>108</ele>
        <time>2021-07-01T11:21:59Z</time>
      </trkpt>
      <trkpt lat="49.60007" lon="1.10756">
        <ele>109</ele>
        <time>2021-07-01T11:22:04Z</time>
      </trkpt>
      <trkpt lat="49.60011" lon="1.10753">
        <ele>109</ele>
        <time>2021-07-01T11:22:10Z</time>
      </trkpt>
      <trkpt lat="49.60035" lon="1.10726">
        <ele>110</ele>
        <time>2021-07-01T11:22:40Z</time>
      </trkpt>
      <trkpt lat="49.6004" lon="1.10728">
        <ele>110</ele>
        <time>2021-07-01T11:22:44Z</time>
      </trkpt>
      <trkpt lat="49.60046" lon="1.10733">
        <ele>110</ele>
        <time>2021-07-01T11:22:50Z</time>
      </trkpt>
      <trkpt lat="49.6006" lon="1.10752">
        <ele>109</ele>
        <time>2021-07-01T11:23:03Z</time>
      </trkpt>
      <trkpt lat="49.60069" lon="1.10758">
        <ele>108</ele>
        <time>2021-07-01T11:23:10Z</time>
      </trkpt>
      <trkpt lat="49.60072" lon="1.10763">
        <ele>108</ele>
        <time>2021-07-01T11:23:13Z</time>
      </trkpt>
      <trkpt lat="49.60074" lon="1.10764">
        <ele>108</ele>
        <time>2021-07-01T11:23:16Z</time>
      </trkpt>
      <trkpt lat="49.60079" lon="1.10768">
        <ele>107</ele>
        <time>2021-07-01T11:23:21Z</time>
      </trkpt>
      <trkpt lat="49.60087" lon="1.10772">
        <ele>107</ele>
        <time>2021-07-01T11:23:27Z</time>
      </trkpt>
      <trkpt lat="49.60116" lon="1.10796">
        <ele>105</ele>
        <time>2021-07-01T11:23:45Z</time>
      </trkpt>
      <trkpt lat="49.60137" lon="1.10813">
        <ele>102</ele>
        <time>2021-07-01T11:24:00Z</time>
      </trkpt>
      <trkpt lat="49.60147" lon="1.10822">
        <ele>101</ele>
        <time>2021-07-01T11:24:10Z</time>
      </trkpt>
      <trkpt lat="49.60145" lon="1.10827">
        <ele>102</ele>
        <time>2021-07-01T11:24:25Z</time>
      </trkpt>
      <trkpt lat="49.60143" lon="1.1083">
        <ele>102</ele>
        <time>2021-07-01T11:24:30Z</time>
      </trkpt>
      <trkpt lat="49.60142" lon="1.10831">
        <ele>103</ele>
        <time>2021-07-01T11:24:32Z</time>
      </trkpt>
      <trkpt lat="49.60145" lon="1.10838">
        <ele>103</ele>
        <time>2021-07-01T11:24:39Z</time>
      </trkpt>
      <trkpt lat="49.60161" lon="1.10851">
        <ele>100</ele>
        <time>2021-07-01T11:24:55Z</time>
      </trkpt>
      <trkpt lat="49.60179" lon="1.10862">
        <ele>98</ele>
        <time>2021-07-01T11:25:10Z</time>
      </trkpt>
      <trkpt lat="49.60189" lon="1.10871">
        <ele>98</ele>
        <time>2021-07-01T11:25:22Z</time>
      </trkpt>
      <trkpt lat="49.60195" lon="1.10876">
        <ele>98</ele>
        <time>2021-07-01T11:25:26Z</time>
      </trkpt>
      <trkpt lat="49.60215" lon="1.1088">
        <ele>96</ele>
        <time>2021-07-01T11:25:42Z</time>
      </trkpt>
      <trkpt lat="49.60235" lon="1.10881">
        <ele>95</ele>
        <time>2021-07-01T11:25:59Z</time>
      </trkpt>
      <trkpt lat="49.60242" lon="1.1088">
        <ele>95</ele>
        <time>2021-07-01T11:26:05Z</time>
      </trkpt>
      <trkpt lat="49.60243" lon="1.10879">
        <ele>95</ele>
        <time>2021-07-01T11:26:06Z</time>
      </trkpt>
      <trkpt lat="49.60244" lon="1.10879">
        <ele>95</ele>
        <time>2021-07-01T11:26:07Z</time>
      </trkpt>
      <trkpt lat="49.6026" lon="1.10877">
        <ele>96</ele>
        <time>2021-07-01T11:26:21Z</time>
      </trkpt>
      <trkpt lat="49.60274" lon="1.10874">
        <ele>96</ele>
        <time>2021-07-01T11:26:33Z</time>
      </trkpt>
      <trkpt lat="49.60287" lon="1.10872">
        <ele>96</ele>
        <time>2021-07-01T11:26:45Z</time>
      </trkpt>
      <trkpt lat="49.60298" lon="1.10869">
        <ele>96</ele>
        <time>2021-07-01T11:26:54Z</time>
      </trkpt>
      <trkpt lat="49.603" lon="1.10869">
        <ele>96</ele>
        <time>2021-07-01T11:26:55Z</time>
      </trkpt>
      <trkpt lat="49.60302" lon="1.10869">
        <ele>96</ele>
        <time>2021-07-01T11:26:56Z</time>
      </trkpt>
      <trkpt lat="49.60304" lon="1.10869">
        <ele>96</ele>
        <time>2021-07-01T11:26:57Z</time>
      </trkpt>
      <trkpt lat="49.60305" lon="1.10869">
        <ele>96</ele>
        <time>2021-07-01T11:26:58Z</time>
      </trkpt>
      <trkpt lat="49.60307" lon="1.10868">
        <ele>95</ele>
        <time>2021-07-01T11:26:59Z</time>
      </trkpt>
      <trkpt lat="49.60308" lon="1.10868">
        <ele>95</ele>
        <time>2021-07-01T11:27:00Z</time>
      </trkpt>
      <trkpt lat="49.60328" lon="1.10861">
        <ele>96</ele>
        <time>2021-07-01T11:27:16Z</time>
      </trkpt>
      <trkpt lat="49.60346" lon="1.10853">
        <ele>96</ele>
        <time>2021-07-01T11:27:30Z</time>
      </trkpt>
      <trkpt lat="49.60347" lon="1.10852">
        <ele>96</ele>
        <time>2021-07-01T11:27:31Z</time>
      </trkpt>
      <trkpt lat="49.60348" lon="1.1085">
        <ele>96</ele>
        <time>2021-07-01T11:27:34Z</time>
      </trkpt>
      <trkpt lat="49.6035" lon="1.10849">
        <ele>97</ele>
        <time>2021-07-01T11:27:35Z</time>
      </trkpt>
      <trkpt lat="49.60351" lon="1.10849">
        <ele>97</ele>
        <time>2021-07-01T11:27:36Z</time>
      </trkpt>
      <trkpt lat="49.60353" lon="1.10848">
        <ele>97</ele>
        <time>2021-07-01T11:27:37Z</time>
      </trkpt>
      <trkpt lat="49.60354" lon="1.10847">
        <ele>97</ele>
        <time>2021-07-01T11:27:38Z</time>
      </trkpt>
      <trkpt lat="49.60384" lon="1.10829">
        <ele>99</ele>
        <time>2021-07-01T11:28:02Z</time>
      </trkpt>
      <trkpt lat="49.60415" lon="1.10809">
        <ele>100</ele>
        <time>2021-07-01T11:28:28Z</time>
      </trkpt>
      <trkpt lat="49.60433" lon="1.10795">
        <ele>101</ele>
        <time>2021-07-01T11:28:43Z</time>
      </trkpt>
      <trkpt lat="49.60466" lon="1.10768">
        <ele>100</ele>
        <time>2021-07-01T11:29:12Z</time>
      </trkpt>
      <trkpt lat="49.60487" lon="1.10747">
        <ele>100</ele>
        <time>2021-07-01T11:29:32Z</time>
      </trkpt>
      <trkpt lat="49.60502" lon="1.10737">
        <ele>100</ele>
        <time>2021-07-01T11:29:45Z</time>
      </trkpt>
      <trkpt lat="49.60514" lon="1.10726">
        <ele>100</ele>
        <time>2021-07-01T11:29:55Z</time>
      </trkpt>
      <trkpt lat="49.60515" lon="1.10725">
        <ele>101</ele>
        <time>2021-07-01T11:29:56Z</time>
      </trkpt>
      <trkpt lat="49.6052" lon="1.1072">
        <ele>101</ele>
        <time>2021-07-01T11:30:00Z</time>
      </trkpt>
      <trkpt lat="49.60521" lon="1.10718">
        <ele>101</ele>
        <time>2021-07-01T11:30:01Z</time>
      </trkpt>
      <trkpt lat="49.60521" lon="1.10717">
        <ele>101</ele>
        <time>2021-07-01T11:30:02Z</time>
      </trkpt>
      <trkpt lat="49.60523" lon="1.10715">
        <ele>101</ele>
        <time>2021-07-01T11:30:03Z</time>
      </trkpt>
      <trkpt lat="49.60524" lon="1.10715">
        <ele>101</ele>
        <time>2021-07-01T11:30:04Z</time>
      </trkpt>
      <trkpt lat="49.60546" lon="1.1069">
        <ele>103</ele>
        <time>2021-07-01T11:30:21Z</time>
      </trkpt>
      <trkpt lat="49.60563" lon="1.10667">
        <ele>103</ele>
        <time>2021-07-01T11:30:36Z</time>
      </trkpt>
      <trkpt lat="49.60576" lon="1.10642">
        <ele>103</ele>
        <time>2021-07-01T11:30:50Z</time>
      </trkpt>
      <trkpt lat="49.60586" lon="1.10618">
        <ele>102</ele>
        <time>2021-07-01T11:31:03Z</time>
      </trkpt>
      <trkpt lat="49.60589" lon="1.10617">
        <ele>102</ele>
        <time>2021-07-01T11:31:05Z</time>
      </trkpt>
      <trkpt lat="49.60592" lon="1.10613">
        <ele>102</ele>
        <time>2021-07-01T11:31:08Z</time>
      </trkpt>
      <trkpt lat="49.60593" lon="1.10611">
        <ele>102</ele>
        <time>2021-07-01T11:31:09Z</time>
      </trkpt>
      <trkpt lat="49.60593" lon="1.10609">
        <ele>102</ele>
        <time>2021-07-01T11:31:10Z</time>
      </trkpt>
      <trkpt lat="49.60594" lon="1.10607">
        <ele>102</ele>
        <time>2021-07-01T11:31:11Z</time>
      </trkpt>
      <trkpt lat="49.60595" lon="1.10605">
        <ele>102</ele>
        <time>2021-07-01T11:31:12Z</time>
      </trkpt>
      <trkpt lat="49.60596" lon="1.10604">
        <ele>102</ele>
        <time>2021-07-01T11:31:13Z</time>
      </trkpt>
      <trkpt lat="49.60597" lon="1.106">
        <ele>102</ele>
        <time>2021-07-01T11:31:15Z</time>
      </trkpt>
      <trkpt lat="49.60598" lon="1.10595">
        <ele>102</ele>
        <time>2021-07-01T11:31:18Z</time>
      </trkpt>
      <trkpt lat="49.60599" lon="1.10594">
        <ele>102</ele>
        <time>2021-07-01T11:31:19Z</time>
      </trkpt>
      <trkpt lat="49.606" lon="1.10594">
        <ele>102</ele>
        <time>2021-07-01T11:31:20Z</time>
      </trkpt>
      <trkpt lat="49.60601" lon="1.10593">
        <ele>102</ele>
        <time>2021-07-01T11:31:21Z</time>
      </trkpt>
      <trkpt lat="49.60602" lon="1.10592">
        <ele>102</ele>
        <time>2021-07-01T11:31:22Z</time>
      </trkpt>
      <trkpt lat="49.60602" lon="1.10591">
        <ele>102</ele>
        <time>2021-07-01T11:31:23Z</time>
      </trkpt>
      <trkpt lat="49.60603" lon="1.10589">
        <ele>102</ele>
        <time>2021-07-01T11:31:24Z</time>
      </trkpt>
      <trkpt lat="49.60611" lon="1.10561">
        <ele>101</ele>
        <time>2021-07-01T11:31:42Z</time>
      </trkpt>
      <trkpt lat="49.60628" lon="1.10516">
        <ele>102</ele>
        <time>2021-07-01T11:32:08Z</time>
      </trkpt>
      <trkpt lat="49.60645" lon="1.10465">
        <ele>104</ele>
        <time>2021-07-01T11:32:36Z</time>
      </trkpt>
      <trkpt lat="49.60662" lon="1.1044">
        <ele>104</ele>
        <time>2021-07-01T11:32:55Z</time>
      </trkpt>
      <trkpt lat="49.60663" lon="1.10439">
        <ele>104</ele>
        <time>2021-07-01T11:32:56Z</time>
      </trkpt>
      <trkpt lat="49.60663" lon="1.10439">
        <ele>104</ele>
        <time>2021-07-01T11:32:57Z</time>
      </trkpt>
      <trkpt lat="49.60665" lon="1.10439">
        <ele>104</ele>
        <time>2021-07-01T11:32:58Z</time>
      </trkpt>
      <trkpt lat="49.60666" lon="1.10438">
        <ele>104</ele>
        <time>2021-07-01T11:32:59Z</time>
      </trkpt>
      <trkpt lat="49.60679" lon="1.10439">
        <ele>103</ele>
        <time>2021-07-01T11:33:16Z</time>
      </trkpt>
      <trkpt lat="49.60689" lon="1.10439">
        <ele>103</ele>
        <time>2021-07-01T11:33:19Z</time>
      </trkpt>
      <trkpt lat="49.60689" lon="1.10442">
        <ele>103</ele>
        <time>2021-07-01T11:33:20Z</time>
      </trkpt>
      <trkpt lat="49.60701" lon="1.10446">
        <ele>102</ele>
        <time>2021-07-01T11:33:27Z</time>
      </trkpt>
      <trkpt lat="49.60702" lon="1.10446">
        <ele>102</ele>
        <time>2021-07-01T11:33:28Z</time>
      </trkpt>
      <trkpt lat="49.60705" lon="1.10446">
        <ele>102</ele>
        <time>2021-07-01T11:33:29Z</time>
      </trkpt>
      <trkpt lat="49.60707" lon="1.10445">
        <ele>102</ele>
        <time>2021-07-01T11:33:30Z</time>
      </trkpt>
      <trkpt lat="49.60708" lon="1.10444">
        <ele>102</ele>
        <time>2021-07-01T11:33:31Z</time>
      </trkpt>
      <trkpt lat="49.60709" lon="1.10443">
        <ele>101</ele>
        <time>2021-07-01T11:33:32Z</time>
      </trkpt>
      <trkpt lat="49.6071" lon="1.10441">
        <ele>101</ele>
        <time>2021-07-01T11:33:33Z</time>
      </trkpt>
      <trkpt lat="49.60715" lon="1.10429">
        <ele>101</ele>
        <time>2021-07-01T11:33:45Z</time>
      </trkpt>
      <trkpt lat="49.60716" lon="1.10425">
        <ele>101</ele>
        <time>2021-07-01T11:33:47Z</time>
      </trkpt>
      <trkpt lat="49.60724" lon="1.10407">
        <ele>101</ele>
        <time>2021-07-01T11:33:59Z</time>
      </trkpt>
      <trkpt lat="49.60725" lon="1.10405">
        <ele>101</ele>
        <time>2021-07-01T11:34:00Z</time>
      </trkpt>
      <trkpt lat="49.60725" lon="1.10403">
        <ele>101</ele>
        <time>2021-07-01T11:34:01Z</time>
      </trkpt>
      <trkpt lat="49.6074" lon="1.10342">
        <ele>103</ele>
        <time>2021-07-01T11:34:34Z</time>
      </trkpt>
      <trkpt lat="49.6075" lon="1.1028">
        <ele>105</ele>
        <time>2021-07-01T11:35:05Z</time>
      </trkpt>
      <trkpt lat="49.60755" lon="1.10236">
        <ele>106</ele>
        <time>2021-07-01T11:35:28Z</time>
      </trkpt>
      <trkpt lat="49.60763" lon="1.10166">
        <ele>108</ele>
        <time>2021-07-01T11:36:04Z</time>
      </trkpt>
      <trkpt lat="49.60773" lon="1.10101">
        <ele>110</ele>
        <time>2021-07-01T11:36:38Z</time>
      </trkpt>
      <trkpt lat="49.60785" lon="1.1004">
        <ele>112</ele>
        <time>2021-07-01T11:37:10Z</time>
      </trkpt>
      <trkpt lat="49.60791" lon="1.10009">
        <ele>112</ele>
        <time>2021-07-01T11:37:25Z</time>
      </trkpt>
      <trkpt lat="49.60798" lon="1.09984">
        <ele>112</ele>
        <time>2021-07-01T11:37:39Z</time>
      </trkpt>
      <trkpt lat="49.60805" lon="1.09965">
        <ele>112</ele>
        <time>2021-07-01T11:37:50Z</time>
      </trkpt>
      <trkpt lat="49.60806" lon="1.09963">
        <ele>112</ele>
        <time>2021-07-01T11:37:51Z</time>
      </trkpt>
      <trkpt lat="49.60806" lon="1.09962">
        <ele>111</ele>
        <time>2021-07-01T11:37:52Z</time>
      </trkpt>
      <trkpt lat="49.60807" lon="1.0996">
        <ele>111</ele>
        <time>2021-07-01T11:37:53Z</time>
      </trkpt>
      <trkpt lat="49.60808" lon="1.09959">
        <ele>111</ele>
        <time>2021-07-01T11:37:54Z</time>
      </trkpt>
      <trkpt lat="49.60808" lon="1.09957">
        <ele>111</ele>
        <time>2021-07-01T11:37:55Z</time>
      </trkpt>
      <trkpt lat="49.60808" lon="1.09955">
        <ele>111</ele>
        <time>2021-07-01T11:37:56Z</time>
      </trkpt>
      <trkpt lat="49.60809" lon="1.09954">
        <ele>111</ele>
        <time>2021-07-01T11:37:57Z</time>
      </trkpt>
      <trkpt lat="49.60809" lon="1.09952">
        <ele>111</ele>
        <time>2021-07-01T11:37:58Z</time>
      </trkpt>
      <trkpt lat="49.6081" lon="1.09951">
        <ele>111</ele>
        <time>2021-07-01T11:37:59Z</time>
      </trkpt>
      <trkpt lat="49.60811" lon="1.09949">
        <ele>111</ele>
        <time>2021-07-01T11:38:00Z</time>
      </trkpt>
      <trkpt lat="49.60811" lon="1.09947">
        <ele>111</ele>
        <time>2021-07-01T11:38:01Z</time>
      </trkpt>
      <trkpt lat="49.60824" lon="1.09916">
        <ele>110</ele>
        <time>2021-07-01T11:38:19Z</time>
      </trkpt>
      <trkpt lat="49.6083" lon="1.09907">
        <ele>110</ele>
        <time>2021-07-01T11:38:25Z</time>
      </trkpt>
      <trkpt lat="49.6083" lon="1.09905">
        <ele>110</ele>
        <time>2021-07-01T11:38:26Z</time>
      </trkpt>
      <trkpt lat="49.60831" lon="1.09904">
        <ele>110</ele>
        <time>2021-07-01T11:38:27Z</time>
      </trkpt>
      <trkpt lat="49.60832" lon="1.09902">
        <ele>110</ele>
        <time>2021-07-01T11:38:28Z</time>
      </trkpt>
      <trkpt lat="49.60833" lon="1.09901">
        <ele>110</ele>
        <time>2021-07-01T11:38:29Z</time>
      </trkpt>
      <trkpt lat="49.60833" lon="1.09899">
        <ele>110</ele>
        <time>2021-07-01T11:38:30Z</time>
      </trkpt>
      <trkpt lat="49.60834" lon="1.09897">
        <ele>109</ele>
        <time>2021-07-01T11:38:31Z</time>
      </trkpt>
      <trkpt lat="49.60835" lon="1.09895">
        <ele>109</ele>
        <time>2021-07-01T11:38:32Z</time>
      </trkpt>
      <trkpt lat="49.60846" lon="1.09867">
        <ele>109</ele>
        <time>2021-07-01T11:38:48Z</time>
      </trkpt>
      <trkpt lat="49.60851" lon="1.0986">
        <ele>109</ele>
        <time>2021-07-01T11:38:53Z</time>
      </trkpt>
      <trkpt lat="49.60852" lon="1.09859">
        <ele>109</ele>
        <time>2021-07-01T11:38:54Z</time>
      </trkpt>
      <trkpt lat="49.60853" lon="1.09858">
        <ele>109</ele>
        <time>2021-07-01T11:38:55Z</time>
      </trkpt>
      <trkpt lat="49.60853" lon="1.09856">
        <ele>109</ele>
        <time>2021-07-01T11:38:56Z</time>
      </trkpt>
      <trkpt lat="49.60863" lon="1.09838">
        <ele>109</ele>
        <time>2021-07-01T11:39:11Z</time>
      </trkpt>
      <trkpt lat="49.60868" lon="1.0983">
        <ele>109</ele>
        <time>2021-07-01T11:39:17Z</time>
      </trkpt>
      <trkpt lat="49.60893" lon="1.09803">
        <ele>110</ele>
        <time>2021-07-01T11:39:38Z</time>
      </trkpt>
      <trkpt lat="49.60925" lon="1.09768">
        <ele>110</ele>
        <time>2021-07-01T11:40:06Z</time>
      </trkpt>
      <trkpt lat="49.60927" lon="1.09728">
        <ele>107</ele>
        <time>2021-07-01T11:40:27Z</time>
      </trkpt>
      <trkpt lat="49.60921" lon="1.09685">
        <ele>108</ele>
        <time>2021-07-01T11:40:51Z</time>
      </trkpt>
      <trkpt lat="49.60932" lon="1.09663">
        <ele>108</ele>
        <time>2021-07-01T11:41:05Z</time>
      </trkpt>
      <trkpt lat="49.60966" lon="1.09647">
        <ele>108</ele>
        <time>2021-07-01T11:41:33Z</time>
      </trkpt>
      <trkpt lat="49.61009" lon="1.09618">
        <ele>109</ele>
        <time>2021-07-01T11:42:10Z</time>
      </trkpt>
      <trkpt lat="49.6101" lon="1.09617">
        <ele>109</ele>
        <time>2021-07-01T11:42:11Z</time>
      </trkpt>
      <trkpt lat="49.61011" lon="1.09615">
        <ele>109</ele>
        <time>2021-07-01T11:42:12Z</time>
      </trkpt>
      <trkpt lat="49.61025" lon="1.09599">
        <ele>110</ele>
        <time>2021-07-01T11:42:26Z</time>
      </trkpt>
      <trkpt lat="49.61026" lon="1.09598">
        <ele>110</ele>
        <time>2021-07-01T11:42:27Z</time>
      </trkpt>
      <trkpt lat="49.61028" lon="1.09597">
        <ele>111</ele>
        <time>2021-07-01T11:42:28Z</time>
      </trkpt>
      <trkpt lat="49.61029" lon="1.09596">
        <ele>111</ele>
        <time>2021-07-01T11:42:29Z</time>
      </trkpt>
      <trkpt lat="49.6103" lon="1.09595">
        <ele>111</ele>
        <time>2021-07-01T11:42:30Z</time>
      </trkpt>
      <trkpt lat="49.61049" lon="1.09578">
        <ele>112</ele>
        <time>2021-07-01T11:42:48Z</time>
      </trkpt>
      <trkpt lat="49.61053" lon="1.09575">
        <ele>112</ele>
        <time>2021-07-01T11:42:51Z</time>
      </trkpt>
      <trkpt lat="49.61054" lon="1.09575">
        <ele>112</ele>
        <time>2021-07-01T11:42:52Z</time>
      </trkpt>
      <trkpt lat="49.61055" lon="1.09574">
        <ele>112</ele>
        <time>2021-07-01T11:42:53Z</time>
      </trkpt>
      <trkpt lat="49.61074" lon="1.09554">
        <ele>114</ele>
        <time>2021-07-01T11:43:11Z</time>
      </trkpt>
      <trkpt lat="49.61083" lon="1.09532">
        <ele>114</ele>
        <time>2021-07-01T11:43:24Z</time>
      </trkpt>
      <trkpt lat="49.61084" lon="1.0953">
        <ele>114</ele>
        <time>2021-07-01T11:43:25Z</time>
      </trkpt>
      <trkpt lat="49.61085" lon="1.09529">
        <ele>114</ele>
        <time>2021-07-01T11:43:26Z</time>
      </trkpt>
      <trkpt lat="49.61085" lon="1.09527">
        <ele>115</ele>
        <time>2021-07-01T11:43:27Z</time>
      </trkpt>
      <trkpt lat="49.6109" lon="1.0952">
        <ele>115</ele>
        <time>2021-07-01T11:43:32Z</time>
      </trkpt>
      <trkpt lat="49.61091" lon="1.09519">
        <ele>115</ele>
        <time>2021-07-01T11:43:33Z</time>
      </trkpt>
      <trkpt lat="49.61092" lon="1.09516">
        <ele>115</ele>
        <time>2021-07-01T11:43:34Z</time>
      </trkpt>
      <trkpt lat="49.61093" lon="1.09514">
        <ele>115</ele>
        <time>2021-07-01T11:43:35Z</time>
      </trkpt>
      <trkpt lat="49.61093" lon="1.09512">
        <ele>115</ele>
        <time>2021-07-01T11:43:36Z</time>
      </trkpt>
      <trkpt lat="49.61106" lon="1.09484">
        <ele>117</ele>
        <time>2021-07-01T11:43:51Z</time>
      </trkpt>
      <trkpt lat="49.61115" lon="1.09459">
        <ele>119</ele>
        <time>2021-07-01T11:44:05Z</time>
      </trkpt>
      <trkpt lat="49.61118" lon="1.09454">
        <ele>119</ele>
        <time>2021-07-01T11:44:08Z</time>
      </trkpt>
      <trkpt lat="49.61119" lon="1.09453">
        <ele>119</ele>
        <time>2021-07-01T11:44:09Z</time>
      </trkpt>
      <trkpt lat="49.6112" lon="1.09451">
        <ele>119</ele>
        <time>2021-07-01T11:44:10Z</time>
      </trkpt>
      <trkpt lat="49.61121" lon="1.0945">
        <ele>120</ele>
        <time>2021-07-01T11:44:11Z</time>
      </trkpt>
      <trkpt lat="49.61121" lon="1.09448">
        <ele>120</ele>
        <time>2021-07-01T11:44:12Z</time>
      </trkpt>
      <trkpt lat="49.61122" lon="1.09446">
        <ele>120</ele>
        <time>2021-07-01T11:44:13Z</time>
      </trkpt>
      <trkpt lat="49.61122" lon="1.09444">
        <ele>120</ele>
        <time>2021-07-01T11:44:14Z</time>
      </trkpt>
      <trkpt lat="49.61123" lon="1.09441">
        <ele>120</ele>
        <time>2021-07-01T11:44:15Z</time>
      </trkpt>
      <trkpt lat="49.61122" lon="1.09439">
        <ele>120</ele>
        <time>2021-07-01T11:44:16Z</time>
      </trkpt>
      <trkpt lat="49.61123" lon="1.09436">
        <ele>121</ele>
        <time>2021-07-01T11:44:17Z</time>
      </trkpt>
      <trkpt lat="49.61123" lon="1.09435">
        <ele>121</ele>
        <time>2021-07-01T11:44:18Z</time>
      </trkpt>
      <trkpt lat="49.61136" lon="1.09406">
        <ele>120</ele>
        <time>2021-07-01T11:44:34Z</time>
      </trkpt>
      <trkpt lat="49.61143" lon="1.09378">
        <ele>121</ele>
        <time>2021-07-01T11:44:49Z</time>
      </trkpt>
      <trkpt lat="49.61149" lon="1.0936">
        <ele>121</ele>
        <time>2021-07-01T11:45:03Z</time>
      </trkpt>
      <trkpt lat="49.61157" lon="1.09337">
        <ele>121</ele>
        <time>2021-07-01T11:45:16Z</time>
      </trkpt>
      <trkpt lat="49.61164" lon="1.09308">
        <ele>122</ele>
        <time>2021-07-01T11:45:31Z</time>
      </trkpt>
      <trkpt lat="49.61165" lon="1.093">
        <ele>122</ele>
        <time>2021-07-01T11:45:51Z</time>
      </trkpt>
      <trkpt lat="49.61167" lon="1.09302">
        <ele>122</ele>
        <time>2021-07-01T11:45:53Z</time>
      </trkpt>
      <trkpt lat="49.61168" lon="1.09304">
        <ele>121</ele>
        <time>2021-07-01T11:45:55Z</time>
      </trkpt>
      <trkpt lat="49.61168" lon="1.09304">
        <ele>121</ele>
        <time>2021-07-01T11:46:28Z</time>
      </trkpt>
      <trkpt lat="49.61172" lon="1.0929">
        <ele>122</ele>
        <time>2021-07-01T11:46:41Z</time>
      </trkpt>
      <trkpt lat="49.61176" lon="1.09241">
        <ele>124</ele>
        <time>2021-07-01T11:47:06Z</time>
      </trkpt>
      <trkpt lat="49.6118" lon="1.09241">
        <ele>123</ele>
        <time>2021-07-01T11:47:30Z</time>
      </trkpt>
      <trkpt lat="49.61176" lon="1.09245">
        <ele>123</ele>
        <time>2021-07-01T11:48:00Z</time>
      </trkpt>
      <trkpt lat="49.61179" lon="1.09252">
        <ele>123</ele>
        <time>2021-07-01T11:48:30Z</time>
      </trkpt>
      <trkpt lat="49.61181" lon="1.09256">
        <ele>122</ele>
        <time>2021-07-01T11:48:54Z</time>
      </trkpt>
      <trkpt lat="49.61179" lon="1.09246">
        <ele>123</ele>
        <time>2021-07-01T11:49:05Z</time>
      </trkpt>
      <trkpt lat="49.61185" lon="1.09203">
        <ele>123</ele>
        <time>2021-07-01T11:49:28Z</time>
      </trkpt>
      <trkpt lat="49.61187" lon="1.09182">
        <ele>122</ele>
        <time>2021-07-01T11:49:39Z</time>
      </trkpt>
      <trkpt lat="49.61186" lon="1.09159">
        <ele>123</ele>
        <time>2021-07-01T11:49:50Z</time>
      </trkpt>
      <trkpt lat="49.61187" lon="1.09143">
        <ele>122</ele>
        <time>2021-07-01T11:50:02Z</time>
      </trkpt>
      <trkpt lat="49.61186" lon="1.09136">
        <ele>123</ele>
        <time>2021-07-01T11:50:05Z</time>
      </trkpt>
      <trkpt lat="49.61189" lon="1.09106">
        <ele>123</ele>
        <time>2021-07-01T11:50:22Z</time>
      </trkpt>
      <trkpt lat="49.61189" lon="1.09094">
        <ele>124</ele>
        <time>2021-07-01T11:50:26Z</time>
      </trkpt>
      <trkpt lat="49.61192" lon="1.09084">
        <ele>124</ele>
        <time>2021-07-01T11:50:30Z</time>
      </trkpt>
      <trkpt lat="49.61194" lon="1.0908">
        <ele>124</ele>
        <time>2021-07-01T11:50:33Z</time>
      </trkpt>
      <trkpt lat="49.61197" lon="1.09073">
        <ele>124</ele>
        <time>2021-07-01T11:50:39Z</time>
      </trkpt>
      <trkpt lat="49.61199" lon="1.09054">
        <ele>124</ele>
        <time>2021-07-01T11:50:54Z</time>
      </trkpt>
      <trkpt lat="49.612" lon="1.09036">
        <ele>124</ele>
        <time>2021-07-01T11:51:05Z</time>
      </trkpt>
      <trkpt lat="49.61204" lon="1.08999">
        <ele>123</ele>
        <time>2021-07-01T11:51:23Z</time>
      </trkpt>
      <trkpt lat="49.61211" lon="1.08962">
        <ele>123</ele>
        <time>2021-07-01T11:51:45Z</time>
      </trkpt>
      <trkpt lat="49.61211" lon="1.08928">
        <ele>125</ele>
        <time>2021-07-01T11:52:08Z</time>
      </trkpt>
      <trkpt lat="49.61216" lon="1.08893">
        <ele>125</ele>
        <time>2021-07-01T11:52:28Z</time>
      </trkpt>
      <trkpt lat="49.61219" lon="1.08858">
        <ele>124</ele>
        <time>2021-07-01T11:52:48Z</time>
      </trkpt>
      <trkpt lat="49.61225" lon="1.08822">
        <ele>124</ele>
        <time>2021-07-01T11:53:03Z</time>
      </trkpt>
      <trkpt lat="49.61236" lon="1.08795">
        <ele>122</ele>
        <time>2021-07-01T11:53:19Z</time>
      </trkpt>
      <trkpt lat="49.61249" lon="1.08784">
        <ele>119</ele>
        <time>2021-07-01T11:53:26Z</time>
      </trkpt>
      <trkpt lat="49.61248" lon="1.08779">
        <ele>119</ele>
        <time>2021-07-01T11:53:29Z</time>
      </trkpt>
      <trkpt lat="49.61244" lon="1.08773">
        <ele>121</ele>
        <time>2021-07-01T11:53:33Z</time>
      </trkpt>
      <trkpt lat="49.61231" lon="1.08763">
        <ele>125</ele>
        <time>2021-07-01T11:53:46Z</time>
      </trkpt>
      <trkpt lat="49.6122" lon="1.08752">
        <ele>128</ele>
        <time>2021-07-01T11:53:57Z</time>
      </trkpt>
      <trkpt lat="49.61215" lon="1.08751">
        <ele>130</ele>
        <time>2021-07-01T11:54:00Z</time>
      </trkpt>
      <trkpt lat="49.61205" lon="1.08737">
        <ele>135</ele>
        <time>2021-07-01T11:54:12Z</time>
      </trkpt>
      <trkpt lat="49.61197" lon="1.0873">
        <ele>138</ele>
        <time>2021-07-01T11:54:26Z</time>
      </trkpt>
      <trkpt lat="49.61185" lon="1.08722">
        <ele>142</ele>
        <time>2021-07-01T11:54:42Z</time>
      </trkpt>
      <trkpt lat="49.61173" lon="1.08713">
        <ele>145</ele>
        <time>2021-07-01T11:55:00Z</time>
      </trkpt>
      <trkpt lat="49.61164" lon="1.08702">
        <ele>147</ele>
        <time>2021-07-01T11:55:23Z</time>
      </trkpt>
      <trkpt lat="49.61145" lon="1.08688">
        <ele>153</ele>
        <time>2021-07-01T11:55:44Z</time>
      </trkpt>
      <trkpt lat="49.61128" lon="1.08677">
        <ele>157</ele>
        <time>2021-07-01T11:56:02Z</time>
      </trkpt>
      <trkpt lat="49.61118" lon="1.08665">
        <ele>160</ele>
        <time>2021-07-01T11:56:21Z</time>
      </trkpt>
      <trkpt lat="49.61108" lon="1.08657">
        <ele>161</ele>
        <time>2021-07-01T11:56:37Z</time>
      </trkpt>
      <trkpt lat="49.61092" lon="1.08642">
        <ele>161</ele>
        <time>2021-07-01T11:56:58Z</time>
      </trkpt>
      <trkpt lat="49.61083" lon="1.08635">
        <ele>161</ele>
        <time>2021-07-01T11:57:08Z</time>
      </trkpt>
      <trkpt lat="49.61074" lon="1.08626">
        <ele>162</ele>
        <time>2021-07-01T11:57:16Z</time>
      </trkpt>
      <trkpt lat="49.61072" lon="1.08625">
        <ele>162</ele>
        <time>2021-07-01T11:57:18Z</time>
      </trkpt>
      <trkpt lat="49.61071" lon="1.08624">
        <ele>162</ele>
        <time>2021-07-01T11:57:20Z</time>
      </trkpt>
      <trkpt lat="49.61067" lon="1.0862">
        <ele>162</ele>
        <time>2021-07-01T11:57:24Z</time>
      </trkpt>
      <trkpt lat="49.61052" lon="1.08612">
        <ele>161</ele>
        <time>2021-07-01T11:57:40Z</time>
      </trkpt>
      <trkpt lat="49.6105" lon="1.08615">
        <ele>161</ele>
        <time>2021-07-01T11:57:45Z</time>
      </trkpt>
      <trkpt lat="49.61048" lon="1.08614">
        <ele>161</ele>
        <time>2021-07-01T11:57:47Z</time>
      </trkpt>
      <trkpt lat="49.61025" lon="1.08593">
        <ele>161</ele>
        <time>2021-07-01T11:58:12Z</time>
      </trkpt>
      <trkpt lat="49.61008" lon="1.08572">
        <ele>160</ele>
        <time>2021-07-01T11:58:31Z</time>
      </trkpt>
      <trkpt lat="49.60994" lon="1.08557">
        <ele>159</ele>
        <time>2021-07-01T11:58:52Z</time>
      </trkpt>
      <trkpt lat="49.60993" lon="1.08555">
        <ele>159</ele>
        <time>2021-07-01T11:58:55Z</time>
      </trkpt>
      <trkpt lat="49.60991" lon="1.08552">
        <ele>159</ele>
        <time>2021-07-01T11:58:57Z</time>
      </trkpt>
      <trkpt lat="49.60969" lon="1.08534">
        <ele>159</ele>
        <time>2021-07-01T11:59:21Z</time>
      </trkpt>
      <trkpt lat="49.60946" lon="1.08512">
        <ele>159</ele>
        <time>2021-07-01T11:59:46Z</time>
      </trkpt>
      <trkpt lat="49.6093" lon="1.08498">
        <ele>160</ele>
        <time>2021-07-01T12:00:03Z</time>
      </trkpt>
      <trkpt lat="49.60927" lon="1.08495">
        <ele>160</ele>
        <time>2021-07-01T12:00:17Z</time>
      </trkpt>
      <trkpt lat="49.60927" lon="1.08495">
        <ele>160</ele>
        <time>2021-07-01T12:00:18Z</time>
      </trkpt>
      <trkpt lat="49.60924" lon="1.08492">
        <ele>161</ele>
        <time>2021-07-01T12:00:21Z</time>
      </trkpt>
      <trkpt lat="49.60886" lon="1.0846">
        <ele>162</ele>
        <time>2021-07-01T12:00:57Z</time>
      </trkpt>
      <trkpt lat="49.60864" lon="1.08439">
        <ele>163</ele>
        <time>2021-07-01T12:01:20Z</time>
      </trkpt>
      <trkpt lat="49.60846" lon="1.08425">
        <ele>162</ele>
        <time>2021-07-01T12:01:37Z</time>
      </trkpt>
      <trkpt lat="49.60825" lon="1.08407">
        <ele>162</ele>
        <time>2021-07-01T12:01:58Z</time>
      </trkpt>
      <trkpt lat="49.60806" lon="1.08387">
        <ele>162</ele>
        <time>2021-07-01T12:02:18Z</time>
      </trkpt>
      <trkpt lat="49.60788" lon="1.08371">
        <ele>162</ele>
        <time>2021-07-01T12:02:35Z</time>
      </trkpt>
      <trkpt lat="49.60771" lon="1.08365">
        <ele>162</ele>
        <time>2021-07-01T12:02:49Z</time>
      </trkpt>
      <trkpt lat="49.60762" lon="1.08365">
        <ele>162</ele>
        <time>2021-07-01T12:02:57Z</time>
      </trkpt>
      <trkpt lat="49.60739" lon="1.0836">
        <ele>162</ele>
        <time>2021-07-01T12:03:14Z</time>
      </trkpt>
      <trkpt lat="49.60722" lon="1.08355">
        <ele>162</ele>
        <time>2021-07-01T12:03:32Z</time>
      </trkpt>
      <trkpt lat="49.60717" lon="1.08354">
        <ele>162</ele>
        <time>2021-07-01T12:03:36Z</time>
      </trkpt>
      <trkpt lat="49.60689" lon="1.08346">
        <ele>162</ele>
        <time>2021-07-01T12:04:02Z</time>
      </trkpt>
      <trkpt lat="49.60679" lon="1.08343">
        <ele>162</ele>
        <time>2021-07-01T12:04:20Z</time>
      </trkpt>
      <trkpt lat="49.60669" lon="1.08342">
        <ele>162</ele>
        <time>2021-07-01T12:04:29Z</time>
      </trkpt>
      <trkpt lat="49.60655" lon="1.08348">
        <ele>162</ele>
        <time>2021-07-01T12:04:41Z</time>
      </trkpt>
      <trkpt lat="49.60653" lon="1.08355">
        <ele>162</ele>
        <time>2021-07-01T12:04:45Z</time>
      </trkpt>
      <trkpt lat="49.60658" lon="1.08384">
        <ele>163</ele>
        <time>2021-07-01T12:05:00Z</time>
      </trkpt>
      <trkpt lat="49.60659" lon="1.08405">
        <ele>163</ele>
        <time>2021-07-01T12:05:11Z</time>
      </trkpt>
      <trkpt lat="49.60658" lon="1.08436">
        <ele>163</ele>
        <time>2021-07-01T12:05:28Z</time>
      </trkpt>
      <trkpt lat="49.60654" lon="1.08464">
        <ele>163</ele>
        <time>2021-07-01T12:05:43Z</time>
      </trkpt>
      <trkpt lat="49.60643" lon="1.0851">
        <ele>164</ele>
        <time>2021-07-01T12:06:07Z</time>
      </trkpt>
      <trkpt lat="49.60632" lon="1.08545">
        <ele>164</ele>
        <time>2021-07-01T12:06:26Z</time>
      </trkpt>
      <trkpt lat="49.60624" lon="1.0857">
        <ele>164</ele>
        <time>2021-07-01T12:06:40Z</time>
      </trkpt>
      <trkpt lat="49.60617" lon="1.08595">
        <ele>162</ele>
        <time>2021-07-01T12:06:55Z</time>
      </trkpt>
      <trkpt lat="49.60607" lon="1.08621">
        <ele>161</ele>
        <time>2021-07-01T12:07:10Z</time>
      </trkpt>
      <trkpt lat="49.6059" lon="1.08653">
        <ele>160</ele>
        <time>2021-07-01T12:07:30Z</time>
      </trkpt>
      <trkpt lat="49.60567" lon="1.0869">
        <ele>162</ele>
        <time>2021-07-01T12:07:57Z</time>
      </trkpt>
      <trkpt lat="49.60551" lon="1.08709">
        <ele>164</ele>
        <time>2021-07-01T12:08:13Z</time>
      </trkpt>
      <trkpt lat="49.60536" lon="1.08731">
        <ele>164</ele>
        <time>2021-07-01T12:08:32Z</time>
      </trkpt>
      <trkpt lat="49.60526" lon="1.08733">
        <ele>165</ele>
        <time>2021-07-01T12:08:42Z</time>
      </trkpt>
      <trkpt lat="49.60522" lon="1.08728">
        <ele>165</ele>
        <time>2021-07-01T12:08:47Z</time>
      </trkpt>
      <trkpt lat="49.60513" lon="1.08696">
        <ele>165</ele>
        <time>2021-07-01T12:09:04Z</time>
      </trkpt>
      <trkpt lat="49.60515" lon="1.08662">
        <ele>165</ele>
        <time>2021-07-01T12:09:23Z</time>
      </trkpt>
      <trkpt lat="49.60515" lon="1.08657">
        <ele>165</ele>
        <time>2021-07-01T12:09:26Z</time>
      </trkpt>
      <trkpt lat="49.60518" lon="1.08622">
        <ele>165</ele>
        <time>2021-07-01T12:09:45Z</time>
      </trkpt>
      <trkpt lat="49.6052" lon="1.08597">
        <ele>166</ele>
        <time>2021-07-01T12:09:58Z</time>
      </trkpt>
      <trkpt lat="49.60519" lon="1.08582">
        <ele>166</ele>
        <time>2021-07-01T12:10:06Z</time>
      </trkpt>
      <trkpt lat="49.6052" lon="1.0857">
        <ele>166</ele>
        <time>2021-07-01T12:10:13Z</time>
      </trkpt>
      <trkpt lat="49.6052" lon="1.08564">
        <ele>166</ele>
        <time>2021-07-01T12:10:16Z</time>
      </trkpt>
      <trkpt lat="49.60521" lon="1.08548">
        <ele>166</ele>
        <time>2021-07-01T12:10:23Z</time>
      </trkpt>
      <trkpt lat="49.60517" lon="1.08511">
        <ele>167</ele>
        <time>2021-07-01T12:10:41Z</time>
      </trkpt>
      <trkpt lat="49.60511" lon="1.08476">
        <ele>166</ele>
        <time>2021-07-01T12:10:57Z</time>
      </trkpt>
      <trkpt lat="49.60508" lon="1.0845">
        <ele>166</ele>
        <time>2021-07-01T12:11:11Z</time>
      </trkpt>
      <trkpt lat="49.60504" lon="1.08416">
        <ele>167</ele>
        <time>2021-07-01T12:11:28Z</time>
      </trkpt>
      <trkpt lat="49.60501" lon="1.08386">
        <ele>169</ele>
        <time>2021-07-01T12:11:44Z</time>
      </trkpt>
      <trkpt lat="49.60498" lon="1.08356">
        <ele>170</ele>
        <time>2021-07-01T12:12:03Z</time>
      </trkpt>
      <trkpt lat="49.60492" lon="1.0831">
        <ele>170</ele>
        <time>2021-07-01T12:12:26Z</time>
      </trkpt>
      <trkpt lat="49.6049" lon="1.08284">
        <ele>171</ele>
        <time>2021-07-01T12:12:42Z</time>
      </trkpt>
      <trkpt lat="49.60493" lon="1.08257">
        <ele>170</ele>
        <time>2021-07-01T12:12:58Z</time>
      </trkpt>
      <trkpt lat="49.60506" lon="1.0821">
        <ele>168</ele>
        <time>2021-07-01T12:13:22Z</time>
      </trkpt>
      <trkpt lat="49.60507" lon="1.08207">
        <ele>168</ele>
        <time>2021-07-01T12:13:24Z</time>
      </trkpt>
      <trkpt lat="49.60508" lon="1.08205">
        <ele>168</ele>
        <time>2021-07-01T12:13:25Z</time>
      </trkpt>
      <trkpt lat="49.60508" lon="1.08203">
        <ele>168</ele>
        <time>2021-07-01T12:13:26Z</time>
      </trkpt>
      <trkpt lat="49.60509" lon="1.082">
        <ele>168</ele>
        <time>2021-07-01T12:13:27Z</time>
      </trkpt>
      <trkpt lat="49.60509" lon="1.08198">
        <ele>168</ele>
        <time>2021-07-01T12:13:28Z</time>
      </trkpt>
      <trkpt lat="49.60509" lon="1.08195">
        <ele>169</ele>
        <time>2021-07-01T12:13:29Z</time>
      </trkpt>
      <trkpt lat="49.60508" lon="1.08193">
        <ele>169</ele>
        <time>2021-07-01T12:13:30Z</time>
      </trkpt>
      <trkpt lat="49.60509" lon="1.08164">
        <ele>170</ele>
        <time>2021-07-01T12:13:44Z</time>
      </trkpt>
      <trkpt lat="49.60511" lon="1.08133">
        <ele>170</ele>
        <time>2021-07-01T12:13:57Z</time>
      </trkpt>
      <trkpt lat="49.60514" lon="1.0812">
        <ele>170</ele>
        <time>2021-07-01T12:14:04Z</time>
      </trkpt>
      <trkpt lat="49.60514" lon="1.08118">
        <ele>170</ele>
        <time>2021-07-01T12:14:05Z</time>
      </trkpt>
      <trkpt lat="49.60514" lon="1.08116">
        <ele>170</ele>
        <time>2021-07-01T12:14:06Z</time>
      </trkpt>
      <trkpt lat="49.60521" lon="1.08099">
        <ele>170</ele>
        <time>2021-07-01T12:14:20Z</time>
      </trkpt>
      <trkpt lat="49.60521" lon="1.08096">
        <ele>170</ele>
        <time>2021-07-01T12:14:22Z</time>
      </trkpt>
      <trkpt lat="49.60521" lon="1.08094">
        <ele>170</ele>
        <time>2021-07-01T12:14:23Z</time>
      </trkpt>
      <trkpt lat="49.60522" lon="1.08093">
        <ele>170</ele>
        <time>2021-07-01T12:14:24Z</time>
      </trkpt>
      <trkpt lat="49.60523" lon="1.08092">
        <ele>170</ele>
        <time>2021-07-01T12:14:25Z</time>
      </trkpt>
      <trkpt lat="49.60523" lon="1.08091">
        <ele>170</ele>
        <time>2021-07-01T12:14:26Z</time>
      </trkpt>
      <trkpt lat="49.60524" lon="1.0809">
        <ele>170</ele>
        <time>2021-07-01T12:14:27Z</time>
      </trkpt>
      <trkpt lat="49.60525" lon="1.0809">
        <ele>170</ele>
        <time>2021-07-01T12:14:28Z</time>
      </trkpt>
      <trkpt lat="49.60527" lon="1.0809">
        <ele>170</ele>
        <time>2021-07-01T12:14:30Z</time>
      </trkpt>
      <trkpt lat="49.60553" lon="1.08099">
        <ele>168</ele>
        <time>2021-07-01T12:14:51Z</time>
      </trkpt>
      <trkpt lat="49.60569" lon="1.08096">
        <ele>168</ele>
        <time>2021-07-01T12:15:02Z</time>
      </trkpt>
      <trkpt lat="49.6059" lon="1.08101">
        <ele>168</ele>
        <time>2021-07-01T12:15:20Z</time>
      </trkpt>
      <trkpt lat="49.6062" lon="1.08095">
        <ele>169</ele>
        <time>2021-07-01T12:15:44Z</time>
      </trkpt>
      <trkpt lat="49.6063" lon="1.08091">
        <ele>169</ele>
        <time>2021-07-01T12:16:00Z</time>
      </trkpt>
      <trkpt lat="49.60633" lon="1.08093">
        <ele>168</ele>
        <time>2021-07-01T12:16:24Z</time>
      </trkpt>
      <trkpt lat="49.60642" lon="1.08088">
        <ele>168</ele>
        <time>2021-07-01T12:17:33Z</time>
      </trkpt>
      <trkpt lat="49.60643" lon="1.08087">
        <ele>168</ele>
        <time>2021-07-01T12:17:34Z</time>
      </trkpt>
      <trkpt lat="49.60641" lon="1.08091">
        <ele>168</ele>
        <time>2021-07-01T12:17:53Z</time>
      </trkpt>
      <trkpt lat="49.60641" lon="1.0809">
        <ele>168</ele>
        <time>2021-07-01T12:18:45Z</time>
      </trkpt>
      <trkpt lat="49.60639" lon="1.08076">
        <ele>168</ele>
        <time>2021-07-01T12:19:04Z</time>
      </trkpt>
      <trkpt lat="49.60644" lon="1.08073">
        <ele>168</ele>
        <time>2021-07-01T12:19:50Z</time>
      </trkpt>
      <trkpt lat="49.60651" lon="1.08071">
        <ele>168</ele>
        <time>2021-07-01T12:20:35Z</time>
      </trkpt>
      <trkpt lat="49.60665" lon="1.08079">
        <ele>168</ele>
        <time>2021-07-01T12:20:51Z</time>
      </trkpt>
      <trkpt lat="49.60672" lon="1.08087">
        <ele>167</ele>
        <time>2021-07-01T12:21:10Z</time>
      </trkpt>
      <trkpt lat="49.60677" lon="1.08091">
        <ele>167</ele>
        <time>2021-07-01T12:21:15Z</time>
      </trkpt>
      <trkpt lat="49.60678" lon="1.08092">
        <ele>167</ele>
        <time>2021-07-01T12:21:16Z</time>
      </trkpt>
      <trkpt lat="49.60679" lon="1.08093">
        <ele>167</ele>
        <time>2021-07-01T12:21:17Z</time>
      </trkpt>
      <trkpt lat="49.60684" lon="1.08097">
        <ele>167</ele>
        <time>2021-07-01T12:21:30Z</time>
      </trkpt>
      <trkpt lat="49.60687" lon="1.08097">
        <ele>167</ele>
        <time>2021-07-01T12:21:32Z</time>
      </trkpt>
      <trkpt lat="49.60694" lon="1.081">
        <ele>167</ele>
        <time>2021-07-01T12:21:39Z</time>
      </trkpt>
      <trkpt lat="49.60695" lon="1.08101">
        <ele>166</ele>
        <time>2021-07-01T12:21:40Z</time>
      </trkpt>
      <trkpt lat="49.60707" lon="1.08095">
        <ele>166</ele>
        <time>2021-07-01T12:21:51Z</time>
      </trkpt>
      <trkpt lat="49.60723" lon="1.08075">
        <ele>165</ele>
        <time>2021-07-01T12:22:09Z</time>
      </trkpt>
      <trkpt lat="49.60733" lon="1.08047">
        <ele>165</ele>
        <time>2021-07-01T12:22:24Z</time>
      </trkpt>
      <trkpt lat="49.60733" lon="1.08045">
        <ele>165</ele>
        <time>2021-07-01T12:22:25Z</time>
      </trkpt>
      <trkpt lat="49.60734" lon="1.08043">
        <ele>165</ele>
        <time>2021-07-01T12:22:26Z</time>
      </trkpt>
      <trkpt lat="49.60734" lon="1.08041">
        <ele>165</ele>
        <time>2021-07-01T12:22:27Z</time>
      </trkpt>
      <trkpt lat="49.60734" lon="1.08039">
        <ele>165</ele>
        <time>2021-07-01T12:22:28Z</time>
      </trkpt>
      <trkpt lat="49.60734" lon="1.08037">
        <ele>165</ele>
        <time>2021-07-01T12:22:29Z</time>
      </trkpt>
      <trkpt lat="49.60735" lon="1.08035">
        <ele>165</ele>
        <time>2021-07-01T12:22:30Z</time>
      </trkpt>
      <trkpt lat="49.60735" lon="1.08033">
        <ele>165</ele>
        <time>2021-07-01T12:22:31Z</time>
      </trkpt>
      <trkpt lat="49.60736" lon="1.08032">
        <ele>165</ele>
        <time>2021-07-01T12:22:32Z</time>
      </trkpt>
      <trkpt lat="49.60736" lon="1.0803">
        <ele>165</ele>
        <time>2021-07-01T12:22:33Z</time>
      </trkpt>
      <trkpt lat="49.60736" lon="1.08029">
        <ele>165</ele>
        <time>2021-07-01T12:22:34Z</time>
      </trkpt>
      <trkpt lat="49.60737" lon="1.08027">
        <ele>165</ele>
        <time>2021-07-01T12:22:35Z</time>
      </trkpt>
      <trkpt lat="49.60737" lon="1.08025">
        <ele>165</ele>
        <time>2021-07-01T12:22:36Z</time>
      </trkpt>
      <trkpt lat="49.60738" lon="1.08019">
        <ele>165</ele>
        <time>2021-07-01T12:22:40Z</time>
      </trkpt>
      <trkpt lat="49.60745" lon="1.0799">
        <ele>164</ele>
        <time>2021-07-01T12:22:58Z</time>
      </trkpt>
      <trkpt lat="49.6075" lon="1.07982">
        <ele>164</ele>
        <time>2021-07-01T12:23:04Z</time>
      </trkpt>
      <trkpt lat="49.60751" lon="1.0798">
        <ele>164</ele>
        <time>2021-07-01T12:23:05Z</time>
      </trkpt>
      <trkpt lat="49.60752" lon="1.07979">
        <ele>164</ele>
        <time>2021-07-01T12:23:06Z</time>
      </trkpt>
      <trkpt lat="49.60773" lon="1.0795">
        <ele>164</ele>
        <time>2021-07-01T12:23:28Z</time>
      </trkpt>
      <trkpt lat="49.6079" lon="1.07926">
        <ele>162</ele>
        <time>2021-07-01T12:23:45Z</time>
      </trkpt>
      <trkpt lat="49.60788" lon="1.07913">
        <ele>162</ele>
        <time>2021-07-01T12:23:54Z</time>
      </trkpt>
      <trkpt lat="49.60787" lon="1.07911">
        <ele>162</ele>
        <time>2021-07-01T12:23:55Z</time>
      </trkpt>
      <trkpt lat="49.60786" lon="1.07909">
        <ele>162</ele>
        <time>2021-07-01T12:23:56Z</time>
      </trkpt>
      <trkpt lat="49.60778" lon="1.07879">
        <ele>162</ele>
        <time>2021-07-01T12:24:16Z</time>
      </trkpt>
      <trkpt lat="49.60778" lon="1.07875">
        <ele>162</ele>
        <time>2021-07-01T12:24:23Z</time>
      </trkpt>
      <trkpt lat="49.60776" lon="1.07871">
        <ele>162</ele>
        <time>2021-07-01T12:24:26Z</time>
      </trkpt>
      <trkpt lat="49.60767" lon="1.07833">
        <ele>163</ele>
        <time>2021-07-01T12:24:48Z</time>
      </trkpt>
      <trkpt lat="49.60751" lon="1.07788">
        <ele>164</ele>
        <time>2021-07-01T12:25:14Z</time>
      </trkpt>
      <trkpt lat="49.60742" lon="1.07754">
        <ele>166</ele>
        <time>2021-07-01T12:25:36Z</time>
      </trkpt>
      <trkpt lat="49.6073" lon="1.0771">
        <ele>167</ele>
        <time>2021-07-01T12:26:04Z</time>
      </trkpt>
      <trkpt lat="49.60718" lon="1.0767">
        <ele>169</ele>
        <time>2021-07-01T12:26:29Z</time>
      </trkpt>
      <trkpt lat="49.60711" lon="1.07643">
        <ele>169</ele>
        <time>2021-07-01T12:26:46Z</time>
      </trkpt>
      <trkpt lat="49.60705" lon="1.07627">
        <ele>170</ele>
        <time>2021-07-01T12:27:07Z</time>
      </trkpt>
      <trkpt lat="49.60703" lon="1.07623">
        <ele>170</ele>
        <time>2021-07-01T12:27:19Z</time>
      </trkpt>
      <trkpt lat="49.60701" lon="1.07617">
        <ele>171</ele>
        <time>2021-07-01T12:27:23Z</time>
      </trkpt>
      <trkpt lat="49.60693" lon="1.07585">
        <ele>172</ele>
        <time>2021-07-01T12:27:44Z</time>
      </trkpt>
      <trkpt lat="49.6068" lon="1.07541">
        <ele>175</ele>
        <time>2021-07-01T12:28:12Z</time>
      </trkpt>
      <trkpt lat="49.60668" lon="1.07502">
        <ele>177</ele>
        <time>2021-07-01T12:28:36Z</time>
      </trkpt>
      <trkpt lat="49.60661" lon="1.07479">
        <ele>179</ele>
        <time>2021-07-01T12:28:57Z</time>
      </trkpt>
      <trkpt lat="49.60658" lon="1.07473">
        <ele>179</ele>
        <time>2021-07-01T12:29:01Z</time>
      </trkpt>
      <trkpt lat="49.60633" lon="1.07434">
        <ele>181</ele>
        <time>2021-07-01T12:29:31Z</time>
      </trkpt>
      <trkpt lat="49.60614" lon="1.07407">
        <ele>180</ele>
        <time>2021-07-01T12:29:52Z</time>
      </trkpt>
      <trkpt lat="49.60595" lon="1.07386">
        <ele>181</ele>
        <time>2021-07-01T12:30:15Z</time>
      </trkpt>
      <trkpt lat="49.60593" lon="1.07385">
        <ele>181</ele>
        <time>2021-07-01T12:30:17Z</time>
      </trkpt>
      <trkpt lat="49.60562" lon="1.07397">
        <ele>182</ele>
        <time>2021-07-01T12:30:42Z</time>
      </trkpt>
      <trkpt lat="49.60533" lon="1.07411">
        <ele>182</ele>
        <time>2021-07-01T12:31:07Z</time>
      </trkpt>
      <trkpt lat="49.60501" lon="1.07426">
        <ele>182</ele>
        <time>2021-07-01T12:31:34Z</time>
      </trkpt>
      <trkpt lat="49.60466" lon="1.07444">
        <ele>181</ele>
        <time>2021-07-01T12:32:03Z</time>
      </trkpt>
      <trkpt lat="49.60435" lon="1.0746">
        <ele>181</ele>
        <time>2021-07-01T12:32:28Z</time>
      </trkpt>
      <trkpt lat="49.60395" lon="1.07477">
        <ele>180</ele>
        <time>2021-07-01T12:33:01Z</time>
      </trkpt>
      <trkpt lat="49.60364" lon="1.07493">
        <ele>179</ele>
        <time>2021-07-01T12:33:31Z</time>
      </trkpt>
      <trkpt lat="49.60363" lon="1.07492">
        <ele>179</ele>
        <time>2021-07-01T12:33:41Z</time>
      </trkpt>
      <trkpt lat="49.6036" lon="1.07494">
        <ele>179</ele>
        <time>2021-07-01T12:33:44Z</time>
      </trkpt>
      <trkpt lat="49.60356" lon="1.07496">
        <ele>179</ele>
        <time>2021-07-01T12:33:47Z</time>
      </trkpt>
      <trkpt lat="49.60338" lon="1.07505">
        <ele>178</ele>
        <time>2021-07-01T12:34:03Z</time>
      </trkpt>
      <trkpt lat="49.6032" lon="1.07516">
        <ele>178</ele>
        <time>2021-07-01T12:34:20Z</time>
      </trkpt>
      <trkpt lat="49.603" lon="1.07529">
        <ele>178</ele>
        <time>2021-07-01T12:34:39Z</time>
      </trkpt>
      <trkpt lat="49.60282" lon="1.07541">
        <ele>178</ele>
        <time>2021-07-01T12:34:55Z</time>
      </trkpt>
      <trkpt lat="49.60258" lon="1.07552">
        <ele>178</ele>
        <time>2021-07-01T12:35:14Z</time>
      </trkpt>
      <trkpt lat="49.60235" lon="1.07561">
        <ele>178</ele>
        <time>2021-07-01T12:35:32Z</time>
      </trkpt>
      <trkpt lat="49.60217" lon="1.07572">
        <ele>178</ele>
        <time>2021-07-01T12:35:47Z</time>
      </trkpt>
      <trkpt lat="49.60206" lon="1.07579">
        <ele>178</ele>
        <time>2021-07-01T12:35:58Z</time>
      </trkpt>
      <trkpt lat="49.60202" lon="1.07581">
        <ele>178</ele>
        <time>2021-07-01T12:36:01Z</time>
      </trkpt>
      <trkpt lat="49.60193" lon="1.07586">
        <ele>178</ele>
        <time>2021-07-01T12:36:10Z</time>
      </trkpt>
      <trkpt lat="49.60186" lon="1.07581">
        <ele>178</ele>
        <time>2021-07-01T12:36:17Z</time>
      </trkpt>
      <trkpt lat="49.60182" lon="1.07574">
        <ele>178</ele>
        <time>2021-07-01T12:36:23Z</time>
      </trkpt>
      <trkpt lat="49.60179" lon="1.07572">
        <ele>178</ele>
        <time>2021-07-01T12:36:26Z</time>
      </trkpt>
      <trkpt lat="49.60165" lon="1.07576">
        <ele>178</ele>
        <time>2021-07-01T12:36:42Z</time>
      </trkpt>
      <trkpt lat="49.60145" lon="1.07587">
        <ele>178</ele>
        <time>2021-07-01T12:37:01Z</time>
      </trkpt>
      <trkpt lat="49.60119" lon="1.07598">
        <ele>179</ele>
        <time>2021-07-01T12:37:22Z</time>
      </trkpt>
      <trkpt lat="49.60102" lon="1.07608">
        <ele>179</ele>
        <time>2021-07-01T12:37:37Z</time>
      </trkpt>
      <trkpt lat="49.60093" lon="1.07613">
        <ele>179</ele>
        <time>2021-07-01T12:37:54Z</time>
      </trkpt>
      <trkpt lat="49.60076" lon="1.07623">
        <ele>179</ele>
        <time>2021-07-01T12:38:15Z</time>
      </trkpt>
      <trkpt lat="49.60048" lon="1.0764">
        <ele>179</ele>
        <time>2021-07-01T12:38:36Z</time>
      </trkpt>
      <trkpt lat="49.60035" lon="1.07648">
        <ele>180</ele>
        <time>2021-07-01T12:38:52Z</time>
      </trkpt>
      <trkpt lat="49.60008" lon="1.07663">
        <ele>181</ele>
        <time>2021-07-01T12:39:14Z</time>
      </trkpt>
      <trkpt lat="49.59985" lon="1.07678">
        <ele>182</ele>
        <time>2021-07-01T12:39:36Z</time>
      </trkpt>
      <trkpt lat="49.5998" lon="1.07688">
        <ele>182</ele>
        <time>2021-07-01T12:39:52Z</time>
      </trkpt>
      <trkpt lat="49.59953" lon="1.07705">
        <ele>183</ele>
        <time>2021-07-01T12:40:17Z</time>
      </trkpt>
      <trkpt lat="49.59922" lon="1.07727">
        <ele>183</ele>
        <time>2021-07-01T12:40:46Z</time>
      </trkpt>
      <trkpt lat="49.59898" lon="1.07744">
        <ele>183</ele>
        <time>2021-07-01T12:41:10Z</time>
      </trkpt>
      <trkpt lat="49.59875" lon="1.07762">
        <ele>184</ele>
        <time>2021-07-01T12:41:33Z</time>
      </trkpt>
      <trkpt lat="49.59845" lon="1.0779">
        <ele>184</ele>
        <time>2021-07-01T12:42:03Z</time>
      </trkpt>
      <trkpt lat="49.59817" lon="1.07814">
        <ele>185</ele>
        <time>2021-07-01T12:42:29Z</time>
      </trkpt>
      <trkpt lat="49.59793" lon="1.07835">
        <ele>186</ele>
        <time>2021-07-01T12:42:53Z</time>
      </trkpt>
      <trkpt lat="49.59766" lon="1.07856">
        <ele>186</ele>
        <time>2021-07-01T12:43:20Z</time>
      </trkpt>
      <trkpt lat="49.59757" lon="1.07864">
        <ele>185</ele>
        <time>2021-07-01T12:43:43Z</time>
      </trkpt>
      <trkpt lat="49.59756" lon="1.07864">
        <ele>185</ele>
        <time>2021-07-01T12:43:49Z</time>
      </trkpt>
      <trkpt lat="49.59752" lon="1.07868">
        <ele>185</ele>
        <time>2021-07-01T12:43:58Z</time>
      </trkpt>
      <trkpt lat="49.59736" lon="1.07879">
        <ele>185</ele>
        <time>2021-07-01T12:44:14Z</time>
      </trkpt>
      <trkpt lat="49.59715" lon="1.07889">
        <ele>185</ele>
        <time>2021-07-01T12:44:32Z</time>
      </trkpt>
      <trkpt lat="49.59695" lon="1.07894">
        <ele>185</ele>
        <time>2021-07-01T12:44:50Z</time>
      </trkpt>
      <trkpt lat="49.59668" lon="1.07903">
        <ele>184</ele>
        <time>2021-07-01T12:45:13Z</time>
      </trkpt>
      <trkpt lat="49.59664" lon="1.07904">
        <ele>184</ele>
        <time>2021-07-01T12:45:16Z</time>
      </trkpt>
      <trkpt lat="49.59659" lon="1.07907">
        <ele>184</ele>
        <time>2021-07-01T12:45:21Z</time>
      </trkpt>
      <trkpt lat="49.59637" lon="1.07915">
        <ele>184</ele>
        <time>2021-07-01T12:45:40Z</time>
      </trkpt>
      <trkpt lat="49.59627" lon="1.07915">
        <ele>184</ele>
        <time>2021-07-01T12:45:49Z</time>
      </trkpt>
      <trkpt lat="49.59602" lon="1.07923">
        <ele>185</ele>
        <time>2021-07-01T12:46:10Z</time>
      </trkpt>
      <trkpt lat="49.59568" lon="1.07928">
        <ele>185</ele>
        <time>2021-07-01T12:46:36Z</time>
      </trkpt>
      <trkpt lat="49.59542" lon="1.07926">
        <ele>185</ele>
        <time>2021-07-01T12:46:56Z</time>
      </trkpt>
      <trkpt lat="49.59524" lon="1.07925">
        <ele>184</ele>
        <time>2021-07-01T12:47:12Z</time>
      </trkpt>
      <trkpt lat="49.59498" lon="1.07934">
        <ele>183</ele>
        <time>2021-07-01T12:47:34Z</time>
      </trkpt>
      <trkpt lat="49.59469" lon="1.07949">
        <ele>182</ele>
        <time>2021-07-01T12:48:00Z</time>
      </trkpt>
      <trkpt lat="49.59448" lon="1.07924">
        <ele>182</ele>
        <time>2021-07-01T12:48:23Z</time>
      </trkpt>
      <trkpt lat="49.59444" lon="1.07916">
        <ele>181</ele>
        <time>2021-07-01T12:48:28Z</time>
      </trkpt>
      <trkpt lat="49.5944" lon="1.07913">
        <ele>181</ele>
        <time>2021-07-01T12:48:46Z</time>
      </trkpt>
      <trkpt lat="49.59436" lon="1.07905">
        <ele>181</ele>
        <time>2021-07-01T12:48:52Z</time>
      </trkpt>
      <trkpt lat="49.59378" lon="1.07854">
        <ele>180</ele>
        <time>2021-07-01T12:49:51Z</time>
      </trkpt>
      <trkpt lat="49.59357" lon="1.07844">
        <ele>179</ele>
        <time>2021-07-01T12:50:09Z</time>
      </trkpt>
      <trkpt lat="49.59354" lon="1.07843">
        <ele>178</ele>
        <time>2021-07-01T12:50:12Z</time>
      </trkpt>
      <trkpt lat="49.59332" lon="1.07825">
        <ele>176</ele>
        <time>2021-07-01T12:50:31Z</time>
      </trkpt>
      <trkpt lat="49.59301" lon="1.07797">
        <ele>175</ele>
        <time>2021-07-01T12:50:59Z</time>
      </trkpt>
      <trkpt lat="49.5928" lon="1.07781">
        <ele>175</ele>
        <time>2021-07-01T12:51:17Z</time>
      </trkpt>
      <trkpt lat="49.59263" lon="1.07769">
        <ele>173</ele>
        <time>2021-07-01T12:51:33Z</time>
      </trkpt>
      <trkpt lat="49.59232" lon="1.07758">
        <ele>171</ele>
        <time>2021-07-01T12:51:58Z</time>
      </trkpt>
      <trkpt lat="49.59205" lon="1.07768">
        <ele>171</ele>
        <time>2021-07-01T12:52:21Z</time>
      </trkpt>
      <trkpt lat="49.59172" lon="1.07791">
        <ele>171</ele>
        <time>2021-07-01T12:52:49Z</time>
      </trkpt>
      <trkpt lat="49.59137" lon="1.07817">
        <ele>171</ele>
        <time>2021-07-01T12:53:19Z</time>
      </trkpt>
      <trkpt lat="49.59136" lon="1.07817">
        <ele>171</ele>
        <time>2021-07-01T12:53:24Z</time>
      </trkpt>
      <trkpt lat="49.59132" lon="1.0782">
        <ele>171</ele>
        <time>2021-07-01T12:53:28Z</time>
      </trkpt>
      <trkpt lat="49.59104" lon="1.07842">
        <ele>169</ele>
        <time>2021-07-01T12:53:54Z</time>
      </trkpt>
      <trkpt lat="49.59082" lon="1.07859">
        <ele>169</ele>
        <time>2021-07-01T12:54:13Z</time>
      </trkpt>
      <trkpt lat="49.59047" lon="1.07888">
        <ele>169</ele>
        <time>2021-07-01T12:54:46Z</time>
      </trkpt>
      <trkpt lat="49.5901" lon="1.07917">
        <ele>169</ele>
        <time>2021-07-01T12:55:20Z</time>
      </trkpt>
      <trkpt lat="49.58965" lon="1.07929">
        <ele>167</ele>
        <time>2021-07-01T12:55:56Z</time>
      </trkpt>
      <trkpt lat="49.58933" lon="1.07933">
        <ele>167</ele>
        <time>2021-07-01T12:56:22Z</time>
      </trkpt>
      <trkpt lat="49.58904" lon="1.07934">
        <ele>168</ele>
        <time>2021-07-01T12:56:45Z</time>
      </trkpt>
      <trkpt lat="49.58871" lon="1.07932">
        <ele>168</ele>
        <time>2021-07-01T12:57:10Z</time>
      </trkpt>
      <trkpt lat="49.58824" lon="1.07934">
        <ele>165</ele>
        <time>2021-07-01T12:57:47Z</time>
      </trkpt>
      <trkpt lat="49.58793" lon="1.07936">
        <ele>165</ele>
        <time>2021-07-01T12:58:12Z</time>
      </trkpt>
      <trkpt lat="49.58752" lon="1.07943">
        <ele>166</ele>
        <time>2021-07-01T12:58:45Z</time>
      </trkpt>
      <trkpt lat="49.58722" lon="1.07949">
        <ele>166</ele>
        <time>2021-07-01T12:59:09Z</time>
      </trkpt>
      <trkpt lat="49.58702" lon="1.07951">
        <ele>166</ele>
        <time>2021-07-01T12:59:27Z</time>
      </trkpt>
      <trkpt lat="49.58682" lon="1.07958">
        <ele>165</ele>
        <time>2021-07-01T12:59:44Z</time>
      </trkpt>
      <trkpt lat="49.58661" lon="1.07963">
        <ele>164</ele>
        <time>2021-07-01T13:00:01Z</time>
      </trkpt>
      <trkpt lat="49.58633" lon="1.07973">
        <ele>165</ele>
        <time>2021-07-01T13:00:24Z</time>
      </trkpt>
      <trkpt lat="49.58603" lon="1.07979">
        <ele>166</ele>
        <time>2021-07-01T13:00:49Z</time>
      </trkpt>
      <trkpt lat="49.58602" lon="1.07978">
        <ele>166</ele>
        <time>2021-07-01T13:00:56Z</time>
      </trkpt>
      <trkpt lat="49.58598" lon="1.07978">
        <ele>166</ele>
        <time>2021-07-01T13:00:59Z</time>
      </trkpt>
      <trkpt lat="49.58555" lon="1.07965">
        <ele>165</ele>
        <time>2021-07-01T13:01:34Z</time>
      </trkpt>
      <trkpt lat="49.58541" lon="1.07982">
        <ele>165</ele>
        <time>2021-07-01T13:01:54Z</time>
      </trkpt>
      <trkpt lat="49.5855" lon="1.08006">
        <ele>166</ele>
        <time>2021-07-01T13:02:10Z</time>
      </trkpt>
      <trkpt lat="49.58559" lon="1.08033">
        <ele>167</ele>
        <time>2021-07-01T13:02:27Z</time>
      </trkpt>
      <trkpt lat="49.58569" lon="1.08054">
        <ele>167</ele>
        <time>2021-07-01T13:02:43Z</time>
      </trkpt>
      <trkpt lat="49.58578" lon="1.08088">
        <ele>168</ele>
        <time>2021-07-01T13:03:03Z</time>
      </trkpt>
      <trkpt lat="49.58586" lon="1.08117">
        <ele>169</ele>
        <time>2021-07-01T13:03:23Z</time>
      </trkpt>
      <trkpt lat="49.58586" lon="1.08118">
        <ele>169</ele>
        <time>2021-07-01T13:03:24Z</time>
      </trkpt>
      <trkpt lat="49.58592" lon="1.08131">
        <ele>169</ele>
        <time>2021-07-01T13:03:33Z</time>
      </trkpt>
      <trkpt lat="49.58607" lon="1.08154">
        <ele>170</ele>
        <time>2021-07-01T13:03:51Z</time>
      </trkpt>
      <trkpt lat="49.5861" lon="1.08158">
        <ele>170</ele>
        <time>2021-07-01T13:03:54Z</time>
      </trkpt>
      <trkpt lat="49.58617" lon="1.08176">
        <ele>171</ele>
        <time>2021-07-01T13:04:10Z</time>
      </trkpt>
      <trkpt lat="49.58619" lon="1.08176">
        <ele>171</ele>
        <time>2021-07-01T13:04:21Z</time>
      </trkpt>
      <trkpt lat="49.58636" lon="1.08204">
        <ele>172</ele>
        <time>2021-07-01T13:04:42Z</time>
      </trkpt>
      <trkpt lat="49.58646" lon="1.08218">
        <ele>172</ele>
        <time>2021-07-01T13:04:54Z</time>
      </trkpt>
      <trkpt lat="49.58668" lon="1.08263">
        <ele>172</ele>
        <time>2021-07-01T13:05:24Z</time>
      </trkpt>
      <trkpt lat="49.58681" lon="1.0828">
        <ele>173</ele>
        <time>2021-07-01T13:05:38Z</time>
      </trkpt>
      <trkpt lat="49.58696" lon="1.08297">
        <ele>174</ele>
        <time>2021-07-01T13:05:56Z</time>
      </trkpt>
      <trkpt lat="49.58707" lon="1.08316">
        <ele>174</ele>
        <time>2021-07-01T13:06:08Z</time>
      </trkpt>
      <trkpt lat="49.58713" lon="1.0833">
        <ele>174</ele>
        <time>2021-07-01T13:06:16Z</time>
      </trkpt>
      <trkpt lat="49.58735" lon="1.08368">
        <ele>174</ele>
        <time>2021-07-01T13:06:42Z</time>
      </trkpt>
      <trkpt lat="49.58737" lon="1.084">
        <ele>172</ele>
        <time>2021-07-01T13:07:02Z</time>
      </trkpt>
      <trkpt lat="49.58733" lon="1.0841">
        <ele>172</ele>
        <time>2021-07-01T13:07:08Z</time>
      </trkpt>
      <trkpt lat="49.58725" lon="1.08434">
        <ele>170</ele>
        <time>2021-07-01T13:07:27Z</time>
      </trkpt>
      <trkpt lat="49.5872" lon="1.08453">
        <ele>169</ele>
        <time>2021-07-01T13:07:49Z</time>
      </trkpt>
      <trkpt lat="49.587" lon="1.08485">
        <ele>166</ele>
        <time>2021-07-01T13:08:14Z</time>
      </trkpt>
      <trkpt lat="49.58684" lon="1.08511">
        <ele>165</ele>
        <time>2021-07-01T13:08:35Z</time>
      </trkpt>
      <trkpt lat="49.5868" lon="1.08523">
        <ele>164</ele>
        <time>2021-07-01T13:08:51Z</time>
      </trkpt>
      <trkpt lat="49.58673" lon="1.08538">
        <ele>163</ele>
        <time>2021-07-01T13:09:10Z</time>
      </trkpt>
      <trkpt lat="49.58665" lon="1.08554">
        <ele>162</ele>
        <time>2021-07-01T13:09:29Z</time>
      </trkpt>
      <trkpt lat="49.58657" lon="1.08571">
        <ele>160</ele>
        <time>2021-07-01T13:09:48Z</time>
      </trkpt>
      <trkpt lat="49.58652" lon="1.08582">
        <ele>160</ele>
        <time>2021-07-01T13:10:04Z</time>
      </trkpt>
      <trkpt lat="49.58648" lon="1.08591">
        <ele>160</ele>
        <time>2021-07-01T13:10:39Z</time>
      </trkpt>
      <trkpt lat="49.58645" lon="1.08599">
        <ele>159</ele>
        <time>2021-07-01T13:10:59Z</time>
      </trkpt>
      <trkpt lat="49.5865" lon="1.08592">
        <ele>160</ele>
        <time>2021-07-01T13:11:21Z</time>
      </trkpt>
      <trkpt lat="49.58644" lon="1.08602">
        <ele>159</ele>
        <time>2021-07-01T13:11:41Z</time>
      </trkpt>
      <trkpt lat="49.58631" lon="1.08625">
        <ele>158</ele>
        <time>2021-07-01T13:12:04Z</time>
      </trkpt>
      <trkpt lat="49.58625" lon="1.08648">
        <ele>158</ele>
        <time>2021-07-01T13:12:23Z</time>
      </trkpt>
      <trkpt lat="49.58619" lon="1.08677">
        <ele>159</ele>
        <time>2021-07-01T13:12:48Z</time>
      </trkpt>
      <trkpt lat="49.58621" lon="1.08697">
        <ele>158</ele>
        <time>2021-07-01T13:13:13Z</time>
      </trkpt>
      <trkpt lat="49.58619" lon="1.0871">
        <ele>157</ele>
        <time>2021-07-01T13:13:37Z</time>
      </trkpt>
      <trkpt lat="49.58616" lon="1.08728">
        <ele>156</ele>
        <time>2021-07-01T13:13:59Z</time>
      </trkpt>
      <trkpt lat="49.58615" lon="1.08741">
        <ele>154</ele>
        <time>2021-07-01T13:14:22Z</time>
      </trkpt>
      <trkpt lat="49.5861" lon="1.08754">
        <ele>154</ele>
        <time>2021-07-01T13:14:43Z</time>
      </trkpt>
      <trkpt lat="49.58602" lon="1.08785">
        <ele>152</ele>
        <time>2021-07-01T13:15:05Z</time>
      </trkpt>
      <trkpt lat="49.58601" lon="1.088">
        <ele>152</ele>
        <time>2021-07-01T13:15:24Z</time>
      </trkpt>
      <trkpt lat="49.58597" lon="1.08809">
        <ele>151</ele>
        <time>2021-07-01T13:15:41Z</time>
      </trkpt>
      <trkpt lat="49.58594" lon="1.08819">
        <ele>151</ele>
        <time>2021-07-01T13:15:53Z</time>
      </trkpt>
      <trkpt lat="49.58593" lon="1.08823">
        <ele>150</ele>
        <time>2021-07-01T13:15:55Z</time>
      </trkpt>
      <trkpt lat="49.58588" lon="1.08842">
        <ele>149</ele>
        <time>2021-07-01T13:16:10Z</time>
      </trkpt>
      <trkpt lat="49.58586" lon="1.08873">
        <ele>146</ele>
        <time>2021-07-01T13:16:36Z</time>
      </trkpt>
      <trkpt lat="49.58585" lon="1.08881">
        <ele>145</ele>
        <time>2021-07-01T13:16:57Z</time>
      </trkpt>
      <trkpt lat="49.58584" lon="1.08883">
        <ele>145</ele>
        <time>2021-07-01T13:17:13Z</time>
      </trkpt>
      <trkpt lat="49.58581" lon="1.0889">
        <ele>144</ele>
        <time>2021-07-01T13:17:26Z</time>
      </trkpt>
      <trkpt lat="49.58578" lon="1.08913">
        <ele>143</ele>
        <time>2021-07-01T13:17:47Z</time>
      </trkpt>
      <trkpt lat="49.58566" lon="1.08926">
        <ele>141</ele>
        <time>2021-07-01T13:18:05Z</time>
      </trkpt>
      <trkpt lat="49.58556" lon="1.08934">
        <ele>139</ele>
        <time>2021-07-01T13:18:26Z</time>
      </trkpt>
      <trkpt lat="49.58547" lon="1.08941">
        <ele>138</ele>
        <time>2021-07-01T13:18:43Z</time>
      </trkpt>
      <trkpt lat="49.5854" lon="1.08945">
        <ele>137</ele>
        <time>2021-07-01T13:18:48Z</time>
      </trkpt>
      <trkpt lat="49.58525" lon="1.0896">
        <ele>135</ele>
        <time>2021-07-01T13:19:12Z</time>
      </trkpt>
      <trkpt lat="49.58509" lon="1.08974">
        <ele>132</ele>
        <time>2021-07-01T13:19:35Z</time>
      </trkpt>
      <trkpt lat="49.58496" lon="1.08993">
        <ele>127</ele>
        <time>2021-07-01T13:19:56Z</time>
      </trkpt>
      <trkpt lat="49.58489" lon="1.08997">
        <ele>125</ele>
        <time>2021-07-01T13:20:06Z</time>
      </trkpt>
      <trkpt lat="49.58487" lon="1.09">
        <ele>125</ele>
        <time>2021-07-01T13:20:10Z</time>
      </trkpt>
      <trkpt lat="49.58485" lon="1.09016">
        <ele>120</ele>
        <time>2021-07-01T13:20:25Z</time>
      </trkpt>
      <trkpt lat="49.5848" lon="1.09024">
        <ele>117</ele>
        <time>2021-07-01T13:20:42Z</time>
      </trkpt>
      <trkpt lat="49.58484" lon="1.09033">
        <ele>116</ele>
        <time>2021-07-01T13:21:03Z</time>
      </trkpt>
      <trkpt lat="49.58483" lon="1.09054">
        <ele>111</ele>
        <time>2021-07-01T13:21:18Z</time>
      </trkpt>
      <trkpt lat="49.58481" lon="1.09065">
        <ele>109</ele>
        <time>2021-07-01T13:21:32Z</time>
      </trkpt>
      <trkpt lat="49.58463" lon="1.09062">
        <ele>108</ele>
        <time>2021-07-01T13:21:53Z</time>
      </trkpt>
      <trkpt lat="49.58439" lon="1.0906">
        <ele>107</ele>
        <time>2021-07-01T13:22:15Z</time>
      </trkpt>
      <trkpt lat="49.58423" lon="1.09068">
        <ele>107</ele>
        <time>2021-07-01T13:22:26Z</time>
      </trkpt>
      <trkpt lat="49.58419" lon="1.0907">
        <ele>107</ele>
        <time>2021-07-01T13:22:30Z</time>
      </trkpt>
      <trkpt lat="49.58403" lon="1.09089">
        <ele>106</ele>
        <time>2021-07-01T13:22:45Z</time>
      </trkpt>
      <trkpt lat="49.58397" lon="1.09094">
        <ele>106</ele>
        <time>2021-07-01T13:22:52Z</time>
      </trkpt>
      <trkpt lat="49.58387" lon="1.091">
        <ele>106</ele>
        <time>2021-07-01T13:23:03Z</time>
      </trkpt>
      <trkpt lat="49.58376" lon="1.09103">
        <ele>104</ele>
        <time>2021-07-01T13:23:15Z</time>
      </trkpt>
      <trkpt lat="49.58362" lon="1.09118">
        <ele>101</ele>
        <time>2021-07-01T13:23:31Z</time>
      </trkpt>
      <trkpt lat="49.58361" lon="1.0912">
        <ele>100</ele>
        <time>2021-07-01T13:23:33Z</time>
      </trkpt>
      <trkpt lat="49.58348" lon="1.09116">
        <ele>99</ele>
        <time>2021-07-01T13:23:48Z</time>
      </trkpt>
      <trkpt lat="49.58344" lon="1.09117">
        <ele>98</ele>
        <time>2021-07-01T13:23:51Z</time>
      </trkpt>
      <trkpt lat="49.58333" lon="1.09113">
        <ele>98</ele>
        <time>2021-07-01T13:23:56Z</time>
      </trkpt>
      <trkpt lat="49.58322" lon="1.09114">
        <ele>95</ele>
        <time>2021-07-01T13:24:05Z</time>
      </trkpt>
      <trkpt lat="49.58316" lon="1.0911">
        <ele>95</ele>
        <time>2021-07-01T13:24:11Z</time>
      </trkpt>
      <trkpt lat="49.58313" lon="1.09108">
        <ele>94</ele>
        <time>2021-07-01T13:24:15Z</time>
      </trkpt>
      <trkpt lat="49.58298" lon="1.09095">
        <ele>94</ele>
        <time>2021-07-01T13:24:30Z</time>
      </trkpt>
      <trkpt lat="49.5828" lon="1.09088">
        <ele>92</ele>
        <time>2021-07-01T13:24:49Z</time>
      </trkpt>
      <trkpt lat="49.5827" lon="1.09076">
        <ele>92</ele>
        <time>2021-07-01T13:25:01Z</time>
      </trkpt>
      <trkpt lat="49.58258" lon="1.09075">
        <ele>89</ele>
        <time>2021-07-01T13:25:10Z</time>
      </trkpt>
      <trkpt lat="49.58252" lon="1.09068">
        <ele>89</ele>
        <time>2021-07-01T13:25:18Z</time>
      </trkpt>
      <trkpt lat="49.58248" lon="1.09062">
        <ele>90</ele>
        <time>2021-07-01T13:25:29Z</time>
      </trkpt>
      <trkpt lat="49.58237" lon="1.09067">
        <ele>86</ele>
        <time>2021-07-01T13:25:42Z</time>
      </trkpt>
      <trkpt lat="49.5823" lon="1.09066">
        <ele>85</ele>
        <time>2021-07-01T13:25:46Z</time>
      </trkpt>
      <trkpt lat="49.58213" lon="1.09077">
        <ele>80</ele>
        <time>2021-07-01T13:26:05Z</time>
      </trkpt>
      <trkpt lat="49.58197" lon="1.09071">
        <ele>79</ele>
        <time>2021-07-01T13:26:23Z</time>
      </trkpt>
      <trkpt lat="49.58188" lon="1.09064">
        <ele>80</ele>
        <time>2021-07-01T13:26:36Z</time>
      </trkpt>
      <trkpt lat="49.5817" lon="1.09068">
        <ele>79</ele>
        <time>2021-07-01T13:26:53Z</time>
      </trkpt>
      <trkpt lat="49.58166" lon="1.09056">
        <ele>82</ele>
        <time>2021-07-01T13:27:13Z</time>
      </trkpt>
      <trkpt lat="49.58166" lon="1.09065">
        <ele>80</ele>
        <time>2021-07-01T13:27:49Z</time>
      </trkpt>
      <trkpt lat="49.58171" lon="1.09057">
        <ele>81</ele>
        <time>2021-07-01T13:28:24Z</time>
      </trkpt>
      <trkpt lat="49.58163" lon="1.09065">
        <ele>80</ele>
        <time>2021-07-01T13:28:39Z</time>
      </trkpt>
      <trkpt lat="49.58155" lon="1.09071">
        <ele>79</ele>
        <time>2021-07-01T13:28:46Z</time>
      </trkpt>
      <trkpt lat="49.58153" lon="1.09072">
        <ele>79</ele>
        <time>2021-07-01T13:28:48Z</time>
      </trkpt>
      <trkpt lat="49.58151" lon="1.09093">
        <ele>76</ele>
        <time>2021-07-01T13:29:04Z</time>
      </trkpt>
      <trkpt lat="49.58151" lon="1.09093">
        <ele>76</ele>
        <time>2021-07-01T13:29:05Z</time>
      </trkpt>
      <trkpt lat="49.58153" lon="1.09099">
        <ele>75</ele>
        <time>2021-07-01T13:29:09Z</time>
      </trkpt>
      <trkpt lat="49.58152" lon="1.09114">
        <ele>74</ele>
        <time>2021-07-01T13:29:18Z</time>
      </trkpt>
      <trkpt lat="49.58153" lon="1.09136">
        <ele>74</ele>
        <time>2021-07-01T13:29:33Z</time>
      </trkpt>
      <trkpt lat="49.58153" lon="1.09142">
        <ele>74</ele>
        <time>2021-07-01T13:29:37Z</time>
      </trkpt>
      <trkpt lat="49.58157" lon="1.09188">
        <ele>75</ele>
        <time>2021-07-01T13:30:04Z</time>
      </trkpt>
      <trkpt lat="49.58159" lon="1.09201">
        <ele>75</ele>
        <time>2021-07-01T13:30:13Z</time>
      </trkpt>
      <trkpt lat="49.5816" lon="1.09227">
        <ele>76</ele>
        <time>2021-07-01T13:30:31Z</time>
      </trkpt>
      <trkpt lat="49.58168" lon="1.0926">
        <ele>77</ele>
        <time>2021-07-01T13:30:48Z</time>
      </trkpt>
      <trkpt lat="49.58172" lon="1.09288">
        <ele>78</ele>
        <time>2021-07-01T13:31:07Z</time>
      </trkpt>
      <trkpt lat="49.58172" lon="1.0929">
        <ele>78</ele>
        <time>2021-07-01T13:31:08Z</time>
      </trkpt>
      <trkpt lat="49.58174" lon="1.09321">
        <ele>79</ele>
        <time>2021-07-01T13:31:24Z</time>
      </trkpt>
      <trkpt lat="49.58176" lon="1.09332">
        <ele>80</ele>
        <time>2021-07-01T13:31:30Z</time>
      </trkpt>
      <trkpt lat="49.58179" lon="1.09348">
        <ele>81</ele>
        <time>2021-07-01T13:31:44Z</time>
      </trkpt>
      <trkpt lat="49.58179" lon="1.09353">
        <ele>81</ele>
        <time>2021-07-01T13:31:47Z</time>
      </trkpt>
      <trkpt lat="49.58181" lon="1.09372">
        <ele>81</ele>
        <time>2021-07-01T13:31:59Z</time>
      </trkpt>
      <trkpt lat="49.58181" lon="1.09411">
        <ele>82</ele>
        <time>2021-07-01T13:32:19Z</time>
      </trkpt>
      <trkpt lat="49.58183" lon="1.09416">
        <ele>82</ele>
        <time>2021-07-01T13:32:25Z</time>
      </trkpt>
      <trkpt lat="49.582" lon="1.09438">
        <ele>82</ele>
        <time>2021-07-01T13:32:44Z</time>
      </trkpt>
      <trkpt lat="49.58213" lon="1.0944">
        <ele>83</ele>
        <time>2021-07-01T13:32:58Z</time>
      </trkpt>
      <trkpt lat="49.58234" lon="1.09442">
        <ele>84</ele>
        <time>2021-07-01T13:33:15Z</time>
      </trkpt>
      <trkpt lat="49.58237" lon="1.09442">
        <ele>84</ele>
        <time>2021-07-01T13:33:17Z</time>
      </trkpt>
      <trkpt lat="49.58242" lon="1.09442">
        <ele>85</ele>
        <time>2021-07-01T13:33:22Z</time>
      </trkpt>
      <trkpt lat="49.58249" lon="1.09445">
        <ele>85</ele>
        <time>2021-07-01T13:33:26Z</time>
      </trkpt>
      <trkpt lat="49.58265" lon="1.09457">
        <ele>87</ele>
        <time>2021-07-01T13:33:40Z</time>
      </trkpt>
      <trkpt lat="49.5827" lon="1.09461">
        <ele>88</ele>
        <time>2021-07-01T13:33:54Z</time>
      </trkpt>
      <trkpt lat="49.58269" lon="1.09492">
        <ele>91</ele>
        <time>2021-07-01T13:34:14Z</time>
      </trkpt>
      <trkpt lat="49.58269" lon="1.09543">
        <ele>94</ele>
        <time>2021-07-01T13:34:40Z</time>
      </trkpt>
      <trkpt lat="49.5827" lon="1.09546">
        <ele>94</ele>
        <time>2021-07-01T13:34:42Z</time>
      </trkpt>
      <trkpt lat="49.58269" lon="1.09554">
        <ele>95</ele>
        <time>2021-07-01T13:34:47Z</time>
      </trkpt>
      <trkpt lat="49.58268" lon="1.09561">
        <ele>94</ele>
        <time>2021-07-01T13:34:51Z</time>
      </trkpt>
      <trkpt lat="49.58268" lon="1.09575">
        <ele>95</ele>
        <time>2021-07-01T13:34:58Z</time>
      </trkpt>
      <trkpt lat="49.58264" lon="1.09583">
        <ele>94</ele>
        <time>2021-07-01T13:35:02Z</time>
      </trkpt>
      <trkpt lat="49.58263" lon="1.09598">
        <ele>94</ele>
        <time>2021-07-01T13:35:11Z</time>
      </trkpt>
      <trkpt lat="49.58262" lon="1.09613">
        <ele>95</ele>
        <time>2021-07-01T13:35:20Z</time>
      </trkpt>
      <trkpt lat="49.58262" lon="1.09627">
        <ele>95</ele>
        <time>2021-07-01T13:35:29Z</time>
      </trkpt>
      <trkpt lat="49.58266" lon="1.09658">
        <ele>97</ele>
        <time>2021-07-01T13:35:44Z</time>
      </trkpt>
      <trkpt lat="49.58264" lon="1.09675">
        <ele>97</ele>
        <time>2021-07-01T13:35:53Z</time>
      </trkpt>
      <trkpt lat="49.58265" lon="1.09685">
        <ele>98</ele>
        <time>2021-07-01T13:35:58Z</time>
      </trkpt>
      <trkpt lat="49.5827" lon="1.09702">
        <ele>99</ele>
        <time>2021-07-01T13:36:08Z</time>
      </trkpt>
      <trkpt lat="49.58274" lon="1.09718">
        <ele>100</ele>
        <time>2021-07-01T13:36:15Z</time>
      </trkpt>
      <trkpt lat="49.58275" lon="1.09729">
        <ele>100</ele>
        <time>2021-07-01T13:36:21Z</time>
      </trkpt>
      <trkpt lat="49.58276" lon="1.09734">
        <ele>100</ele>
        <time>2021-07-01T13:36:25Z</time>
      </trkpt>
      <trkpt lat="49.58276" lon="1.09741">
        <ele>100</ele>
        <time>2021-07-01T13:36:29Z</time>
      </trkpt>
      <trkpt lat="49.58276" lon="1.09748">
        <ele>100</ele>
        <time>2021-07-01T13:36:33Z</time>
      </trkpt>
      <trkpt lat="49.58277" lon="1.09763">
        <ele>100</ele>
        <time>2021-07-01T13:36:44Z</time>
      </trkpt>
      <trkpt lat="49.58278" lon="1.09776">
        <ele>100</ele>
        <time>2021-07-01T13:36:54Z</time>
      </trkpt>
      <trkpt lat="49.58279" lon="1.09788">
        <ele>101</ele>
        <time>2021-07-01T13:37:02Z</time>
      </trkpt>
      <trkpt lat="49.58278" lon="1.09793">
        <ele>101</ele>
        <time>2021-07-01T13:37:06Z</time>
      </trkpt>
      <trkpt lat="49.58278" lon="1.09809">
        <ele>101</ele>
        <time>2021-07-01T13:37:16Z</time>
      </trkpt>
      <trkpt lat="49.58278" lon="1.09813">
        <ele>102</ele>
        <time>2021-07-01T13:37:18Z</time>
      </trkpt>
      <trkpt lat="49.58276" lon="1.09831">
        <ele>101</ele>
        <time>2021-07-01T13:37:31Z</time>
      </trkpt>
      <trkpt lat="49.58276" lon="1.09836">
        <ele>101</ele>
        <time>2021-07-01T13:37:34Z</time>
      </trkpt>
      <trkpt lat="49.58276" lon="1.09851">
        <ele>102</ele>
        <time>2021-07-01T13:37:45Z</time>
      </trkpt>
      <trkpt lat="49.58275" lon="1.09858">
        <ele>102</ele>
        <time>2021-07-01T13:37:50Z</time>
      </trkpt>
      <trkpt lat="49.58276" lon="1.09869">
        <ele>103</ele>
        <time>2021-07-01T13:37:58Z</time>
      </trkpt>
      <trkpt lat="49.58275" lon="1.09879">
        <ele>104</ele>
        <time>2021-07-01T13:38:05Z</time>
      </trkpt>
      <trkpt lat="49.58273" lon="1.09886">
        <ele>104</ele>
        <time>2021-07-01T13:38:10Z</time>
      </trkpt>
      <trkpt lat="49.58274" lon="1.0989">
        <ele>104</ele>
        <time>2021-07-01T13:38:12Z</time>
      </trkpt>
      <trkpt lat="49.58277" lon="1.09916">
        <ele>105</ele>
        <time>2021-07-01T13:38:26Z</time>
      </trkpt>
      <trkpt lat="49.58279" lon="1.09927">
        <ele>106</ele>
        <time>2021-07-01T13:38:40Z</time>
      </trkpt>
      <trkpt lat="49.5828" lon="1.09928">
        <ele>107</ele>
        <time>2021-07-01T13:39:01Z</time>
      </trkpt>
      <trkpt lat="49.5828" lon="1.09929">
        <ele>107</ele>
        <time>2021-07-01T13:39:02Z</time>
      </trkpt>
      <trkpt lat="49.58275" lon="1.0995">
        <ele>108</ele>
        <time>2021-07-01T13:39:24Z</time>
      </trkpt>
      <trkpt lat="49.58275" lon="1.09952">
        <ele>108</ele>
        <time>2021-07-01T13:39:26Z</time>
      </trkpt>
      <trkpt lat="49.58279" lon="1.09984">
        <ele>111</ele>
        <time>2021-07-01T13:39:46Z</time>
      </trkpt>
      <trkpt lat="49.58277" lon="1.10013">
        <ele>112</ele>
        <time>2021-07-01T13:40:03Z</time>
      </trkpt>
      <trkpt lat="49.58279" lon="1.10025">
        <ele>114</ele>
        <time>2021-07-01T13:40:09Z</time>
      </trkpt>
      <trkpt lat="49.58278" lon="1.10043">
        <ele>114</ele>
        <time>2021-07-01T13:40:25Z</time>
      </trkpt>
      <trkpt lat="49.58277" lon="1.10052">
        <ele>114</ele>
        <time>2021-07-01T13:40:45Z</time>
      </trkpt>
      <trkpt lat="49.58277" lon="1.10055">
        <ele>114</ele>
        <time>2021-07-01T13:40:47Z</time>
      </trkpt>
      <trkpt lat="49.58278" lon="1.10077">
        <ele>116</ele>
        <time>2021-07-01T13:41:00Z</time>
      </trkpt>
      <trkpt lat="49.5828" lon="1.10084">
        <ele>117</ele>
        <time>2021-07-01T13:41:04Z</time>
      </trkpt>
      <trkpt lat="49.5828" lon="1.10088">
        <ele>117</ele>
        <time>2021-07-01T13:41:06Z</time>
      </trkpt>
      <trkpt lat="49.58279" lon="1.10092">
        <ele>118</ele>
        <time>2021-07-01T13:41:09Z</time>
      </trkpt>
      <trkpt lat="49.58275" lon="1.10119">
        <ele>118</ele>
        <time>2021-07-01T13:41:26Z</time>
      </trkpt>
      <trkpt lat="49.58272" lon="1.10132">
        <ele>119</ele>
        <time>2021-07-01T13:41:36Z</time>
      </trkpt>
      <trkpt lat="49.58275" lon="1.10142">
        <ele>120</ele>
        <time>2021-07-01T13:41:42Z</time>
      </trkpt>
      <trkpt lat="49.58278" lon="1.10146">
        <ele>121</ele>
        <time>2021-07-01T13:41:45Z</time>
      </trkpt>
      <trkpt lat="49.58278" lon="1.1016">
        <ele>123</ele>
        <time>2021-07-01T13:41:55Z</time>
      </trkpt>
      <trkpt lat="49.58282" lon="1.10177">
        <ele>125</ele>
        <time>2021-07-01T13:42:07Z</time>
      </trkpt>
      <trkpt lat="49.5829" lon="1.10197">
        <ele>128</ele>
        <time>2021-07-01T13:42:24Z</time>
      </trkpt>
      <trkpt lat="49.58286" lon="1.10225">
        <ele>128</ele>
        <time>2021-07-01T13:42:43Z</time>
      </trkpt>
      <trkpt lat="49.58291" lon="1.10254">
        <ele>131</ele>
        <time>2021-07-01T13:43:07Z</time>
      </trkpt>
      <trkpt lat="49.58295" lon="1.10282">
        <ele>133</ele>
        <time>2021-07-01T13:43:28Z</time>
      </trkpt>
      <trkpt lat="49.5829" lon="1.10306">
        <ele>133</ele>
        <time>2021-07-01T13:43:51Z</time>
      </trkpt>
      <trkpt lat="49.5829" lon="1.10309">
        <ele>133</ele>
        <time>2021-07-01T13:43:53Z</time>
      </trkpt>
      <trkpt lat="49.5829" lon="1.10318">
        <ele>134</ele>
        <time>2021-07-01T13:43:57Z</time>
      </trkpt>
      <trkpt lat="49.58291" lon="1.10348">
        <ele>137</ele>
        <time>2021-07-01T13:44:21Z</time>
      </trkpt>
      <trkpt lat="49.5829" lon="1.10351">
        <ele>137</ele>
        <time>2021-07-01T13:44:24Z</time>
      </trkpt>
      <trkpt lat="49.58295" lon="1.10378">
        <ele>140</ele>
        <time>2021-07-01T13:44:42Z</time>
      </trkpt>
      <trkpt lat="49.583" lon="1.10402">
        <ele>142</ele>
        <time>2021-07-01T13:44:59Z</time>
      </trkpt>
      <trkpt lat="49.583" lon="1.10428">
        <ele>143</ele>
        <time>2021-07-01T13:45:18Z</time>
      </trkpt>
      <trkpt lat="49.58302" lon="1.10441">
        <ele>143</ele>
        <time>2021-07-01T13:45:27Z</time>
      </trkpt>
      <trkpt lat="49.58301" lon="1.10444">
        <ele>143</ele>
        <time>2021-07-01T13:45:29Z</time>
      </trkpt>
      <trkpt lat="49.58305" lon="1.10465">
        <ele>144</ele>
        <time>2021-07-01T13:45:45Z</time>
      </trkpt>
      <trkpt lat="49.58308" lon="1.10493">
        <ele>145</ele>
        <time>2021-07-01T13:46:07Z</time>
      </trkpt>
      <trkpt lat="49.58308" lon="1.10494">
        <ele>145</ele>
        <time>2021-07-01T13:46:08Z</time>
      </trkpt>
      <trkpt lat="49.58311" lon="1.105">
        <ele>145</ele>
        <time>2021-07-01T13:46:12Z</time>
      </trkpt>
      <trkpt lat="49.58316" lon="1.10532">
        <ele>147</ele>
        <time>2021-07-01T13:46:35Z</time>
      </trkpt>
      <trkpt lat="49.58318" lon="1.10559">
        <ele>149</ele>
        <time>2021-07-01T13:46:53Z</time>
      </trkpt>
      <trkpt lat="49.58316" lon="1.10582">
        <ele>149</ele>
        <time>2021-07-01T13:47:11Z</time>
      </trkpt>
      <trkpt lat="49.58312" lon="1.10606">
        <ele>150</ele>
        <time>2021-07-01T13:47:31Z</time>
      </trkpt>
      <trkpt lat="49.58311" lon="1.1062">
        <ele>151</ele>
        <time>2021-07-01T13:47:52Z</time>
      </trkpt>
      <trkpt lat="49.58312" lon="1.10615">
        <ele>150</ele>
        <time>2021-07-01T13:48:17Z</time>
      </trkpt>
      <trkpt lat="49.58299" lon="1.10616">
        <ele>151</ele>
        <time>2021-07-01T13:48:33Z</time>
      </trkpt>
      <trkpt lat="49.58294" lon="1.10615">
        <ele>152</ele>
        <time>2021-07-01T13:48:38Z</time>
      </trkpt>
      <trkpt lat="49.58273" lon="1.10612">
        <ele>154</ele>
        <time>2021-07-01T13:48:59Z</time>
      </trkpt>
      <trkpt lat="49.58267" lon="1.10604">
        <ele>154</ele>
        <time>2021-07-01T13:49:10Z</time>
      </trkpt>
      <trkpt lat="49.58249" lon="1.10596">
        <ele>157</ele>
        <time>2021-07-01T13:49:28Z</time>
      </trkpt>
      <trkpt lat="49.58229" lon="1.10591">
        <ele>160</ele>
        <time>2021-07-01T13:49:43Z</time>
      </trkpt>
      <trkpt lat="49.58223" lon="1.1059">
        <ele>162</ele>
        <time>2021-07-01T13:49:48Z</time>
      </trkpt>
      <trkpt lat="49.58203" lon="1.10602">
        <ele>162</ele>
        <time>2021-07-01T13:50:09Z</time>
      </trkpt>
      <trkpt lat="49.58196" lon="1.10604">
        <ele>163</ele>
        <time>2021-07-01T13:50:25Z</time>
      </trkpt>
      <trkpt lat="49.58184" lon="1.1062">
        <ele>162</ele>
        <time>2021-07-01T13:50:43Z</time>
      </trkpt>
      <trkpt lat="49.58166" lon="1.10634">
        <ele>163</ele>
        <time>2021-07-01T13:51:00Z</time>
      </trkpt>
      <trkpt lat="49.5816" lon="1.10639">
        <ele>163</ele>
        <time>2021-07-01T13:51:06Z</time>
      </trkpt>
      <trkpt lat="49.58153" lon="1.10649">
        <ele>163</ele>
        <time>2021-07-01T13:51:13Z</time>
      </trkpt>
      <trkpt lat="49.58136" lon="1.10666">
        <ele>165</ele>
        <time>2021-07-01T13:51:30Z</time>
      </trkpt>
      <trkpt lat="49.58117" lon="1.10686">
        <ele>165</ele>
        <time>2021-07-01T13:51:47Z</time>
      </trkpt>
      <trkpt lat="49.58099" lon="1.10702">
        <ele>165</ele>
        <time>2021-07-01T13:52:03Z</time>
      </trkpt>
      <trkpt lat="49.5808" lon="1.10715">
        <ele>164</ele>
        <time>2021-07-01T13:52:20Z</time>
      </trkpt>
      <trkpt lat="49.58065" lon="1.10725">
        <ele>165</ele>
        <time>2021-07-01T13:52:32Z</time>
      </trkpt>
      <trkpt lat="49.58045" lon="1.10738">
        <ele>167</ele>
        <time>2021-07-01T13:52:48Z</time>
      </trkpt>
      <trkpt lat="49.58024" lon="1.10759">
        <ele>169</ele>
        <time>2021-07-01T13:53:07Z</time>
      </trkpt>
      <trkpt lat="49.58013" lon="1.10767">
        <ele>169</ele>
        <time>2021-07-01T13:53:17Z</time>
      </trkpt>
      <trkpt lat="49.58005" lon="1.10775">
        <ele>169</ele>
        <time>2021-07-01T13:53:24Z</time>
      </trkpt>
      <trkpt lat="49.5799" lon="1.1079">
        <ele>168</ele>
        <time>2021-07-01T13:53:41Z</time>
      </trkpt>
      <trkpt lat="49.57986" lon="1.10801">
        <ele>167</ele>
        <time>2021-07-01T13:53:48Z</time>
      </trkpt>
      <trkpt lat="49.57973" lon="1.10808">
        <ele>167</ele>
        <time>2021-07-01T13:54:02Z</time>
      </trkpt>
      <trkpt lat="49.57971" lon="1.10808">
        <ele>167</ele>
        <time>2021-07-01T13:54:05Z</time>
      </trkpt>
      <trkpt lat="49.57952" lon="1.10818">
        <ele>168</ele>
        <time>2021-07-01T13:54:20Z</time>
      </trkpt>
      <trkpt lat="49.57938" lon="1.10817">
        <ele>168</ele>
        <time>2021-07-01T13:54:34Z</time>
      </trkpt>
      <trkpt lat="49.57919" lon="1.10819">
        <ele>168</ele>
        <time>2021-07-01T13:54:50Z</time>
      </trkpt>
      <trkpt lat="49.5789" lon="1.10835">
        <ele>171</ele>
        <time>2021-07-01T13:55:17Z</time>
      </trkpt>
      <trkpt lat="49.57868" lon="1.10831">
        <ele>167</ele>
        <time>2021-07-01T13:55:34Z</time>
      </trkpt>
      <trkpt lat="49.57859" lon="1.10829">
        <ele>166</ele>
        <time>2021-07-01T13:55:41Z</time>
      </trkpt>
      <trkpt lat="49.57854" lon="1.10829">
        <ele>165</ele>
        <time>2021-07-01T13:55:45Z</time>
      </trkpt>
      <trkpt lat="49.57823" lon="1.10827">
        <ele>160</ele>
        <time>2021-07-01T13:56:12Z</time>
      </trkpt>
      <trkpt lat="49.57812" lon="1.10826">
        <ele>160</ele>
        <time>2021-07-01T13:56:23Z</time>
      </trkpt>
      <trkpt lat="49.5781" lon="1.10827">
        <ele>160</ele>
        <time>2021-07-01T13:56:25Z</time>
      </trkpt>
      <trkpt lat="49.57786" lon="1.10826">
        <ele>159</ele>
        <time>2021-07-01T13:56:49Z</time>
      </trkpt>
      <trkpt lat="49.57765" lon="1.10823">
        <ele>160</ele>
        <time>2021-07-01T13:57:08Z</time>
      </trkpt>
      <trkpt lat="49.57729" lon="1.10819">
        <ele>162</ele>
        <time>2021-07-01T13:57:41Z</time>
      </trkpt>
      <trkpt lat="49.57701" lon="1.10817">
        <ele>163</ele>
        <time>2021-07-01T13:58:05Z</time>
      </trkpt>
      <trkpt lat="49.57667" lon="1.10813">
        <ele>164</ele>
        <time>2021-07-01T13:58:34Z</time>
      </trkpt>
      <trkpt lat="49.57632" lon="1.10809">
        <ele>164</ele>
        <time>2021-07-01T13:59:02Z</time>
      </trkpt>
      <trkpt lat="49.57591" lon="1.10804">
        <ele>164</ele>
        <time>2021-07-01T13:59:35Z</time>
      </trkpt>
      <trkpt lat="49.57552" lon="1.10799">
        <ele>164</ele>
        <time>2021-07-01T14:00:06Z</time>
      </trkpt>
      <trkpt lat="49.5751" lon="1.10792">
        <ele>165</ele>
        <time>2021-07-01T14:00:40Z</time>
      </trkpt>
      <trkpt lat="49.57478" lon="1.10772">
        <ele>167</ele>
        <time>2021-07-01T14:01:08Z</time>
      </trkpt>
      <trkpt lat="49.57447" lon="1.10745">
        <ele>167</ele>
        <time>2021-07-01T14:01:37Z</time>
      </trkpt>
      <trkpt lat="49.5742" lon="1.10738">
        <ele>167</ele>
        <time>2021-07-01T14:02:00Z</time>
      </trkpt>
      <trkpt lat="49.57412" lon="1.10739">
        <ele>167</ele>
        <time>2021-07-01T14:02:07Z</time>
      </trkpt>
      <trkpt lat="49.57409" lon="1.10742">
        <ele>167</ele>
        <time>2021-07-01T14:02:11Z</time>
      </trkpt>
      <trkpt lat="49.57393" lon="1.10756">
        <ele>168</ele>
        <time>2021-07-01T14:02:26Z</time>
      </trkpt>
      <trkpt lat="49.57375" lon="1.10781">
        <ele>169</ele>
        <time>2021-07-01T14:02:48Z</time>
      </trkpt>
      <trkpt lat="49.5736" lon="1.10803">
        <ele>170</ele>
        <time>2021-07-01T14:03:06Z</time>
      </trkpt>
      <trkpt lat="49.57334" lon="1.10828">
        <ele>171</ele>
        <time>2021-07-01T14:03:31Z</time>
      </trkpt>
      <trkpt lat="49.57305" lon="1.10857">
        <ele>172</ele>
        <time>2021-07-01T14:03:57Z</time>
      </trkpt>
      <trkpt lat="49.57286" lon="1.10881">
        <ele>173</ele>
        <time>2021-07-01T14:04:16Z</time>
      </trkpt>
      <trkpt lat="49.5727" lon="1.10892">
        <ele>174</ele>
        <time>2021-07-01T14:04:31Z</time>
      </trkpt>
      <trkpt lat="49.57265" lon="1.10887">
        <ele>174</ele>
        <time>2021-07-01T14:04:35Z</time>
      </trkpt>
      <trkpt lat="49.57251" lon="1.10853">
        <ele>173</ele>
        <time>2021-07-01T14:04:54Z</time>
      </trkpt>
      <trkpt lat="49.57238" lon="1.10821">
        <ele>173</ele>
        <time>2021-07-01T14:05:15Z</time>
      </trkpt>
      <trkpt lat="49.57243" lon="1.10804">
        <ele>173</ele>
        <time>2021-07-01T14:05:29Z</time>
      </trkpt>
      <trkpt lat="49.57239" lon="1.10773">
        <ele>173</ele>
        <time>2021-07-01T14:05:48Z</time>
      </trkpt>
      <trkpt lat="49.57234" lon="1.10754">
        <ele>174</ele>
        <time>2021-07-01T14:06:07Z</time>
      </trkpt>
      <trkpt lat="49.57233" lon="1.10756">
        <ele>174</ele>
        <time>2021-07-01T14:06:28Z</time>
      </trkpt>
      <trkpt lat="49.57231" lon="1.10766">
        <ele>174</ele>
        <time>2021-07-01T14:07:02Z</time>
      </trkpt>
      <trkpt lat="49.57233" lon="1.10767">
        <ele>174</ele>
        <time>2021-07-01T14:07:30Z</time>
      </trkpt>
      <trkpt lat="49.57233" lon="1.10764">
        <ele>174</ele>
        <time>2021-07-01T14:08:45Z</time>
      </trkpt>
      <trkpt lat="49.57233" lon="1.10764">
        <ele>174</ele>
        <time>2021-07-01T14:11:15Z</time>
      </trkpt>
      <trkpt lat="49.57232" lon="1.10763">
        <ele>174</ele>
        <time>2021-07-01T14:12:25Z</time>
      </trkpt>
      <trkpt lat="49.57232" lon="1.10763">
        <ele>174</ele>
        <time>2021-07-01T14:13:14Z</time>
      </trkpt>
      <trkpt lat="49.57232" lon="1.1076">
        <ele>174</ele>
        <time>2021-07-01T14:14:12Z</time>
      </trkpt>
      <trkpt lat="49.57232" lon="1.10757">
        <ele>174</ele>
        <time>2021-07-01T14:15:13Z</time>
      </trkpt>
      <trkpt lat="49.57231" lon="1.1076">
        <ele>174</ele>
        <time>2021-07-01T14:15:43Z</time>
      </trkpt>
      <trkpt lat="49.57238" lon="1.10761">
        <ele>174</ele>
        <time>2021-07-01T14:16:51Z</time>
      </trkpt>
      <trkpt lat="49.57237" lon="1.10755">
        <ele>174</ele>
        <time>2021-07-01T14:17:17Z</time>
      </trkpt>
      <trkpt lat="49.57241" lon="1.10773">
        <ele>173</ele>
        <time>2021-07-01T14:17:33Z</time>
      </trkpt>
      <trkpt lat="49.57243" lon="1.1078">
        <ele>173</ele>
        <time>2021-07-01T14:17:38Z</time>
      </trkpt>
      <trkpt lat="49.57241" lon="1.10815">
        <ele>173</ele>
        <time>2021-07-01T14:18:01Z</time>
      </trkpt>
      <trkpt lat="49.57246" lon="1.10844">
        <ele>173</ele>
        <time>2021-07-01T14:18:19Z</time>
      </trkpt>
      <trkpt lat="49.57263" lon="1.10891">
        <ele>174</ele>
        <time>2021-07-01T14:18:50Z</time>
      </trkpt>
      <trkpt lat="49.57249" lon="1.10918">
        <ele>176</ele>
        <time>2021-07-01T14:19:10Z</time>
      </trkpt>
      <trkpt lat="49.57243" lon="1.10927">
        <ele>176</ele>
        <time>2021-07-01T14:19:21Z</time>
      </trkpt>
      <trkpt lat="49.57228" lon="1.10947">
        <ele>176</ele>
        <time>2021-07-01T14:19:39Z</time>
      </trkpt>
      <trkpt lat="49.57225" lon="1.10979">
        <ele>175</ele>
        <time>2021-07-01T14:19:57Z</time>
      </trkpt>
      <trkpt lat="49.57243" lon="1.11023">
        <ele>175</ele>
        <time>2021-07-01T14:20:24Z</time>
      </trkpt>
      <trkpt lat="49.57261" lon="1.11067">
        <ele>173</ele>
        <time>2021-07-01T14:20:50Z</time>
      </trkpt>
      <trkpt lat="49.57279" lon="1.1111">
        <ele>172</ele>
        <time>2021-07-01T14:21:17Z</time>
      </trkpt>
      <trkpt lat="49.57284" lon="1.11113">
        <ele>171</ele>
        <time>2021-07-01T14:21:33Z</time>
      </trkpt>
      <trkpt lat="49.57286" lon="1.11119">
        <ele>171</ele>
        <time>2021-07-01T14:21:37Z</time>
      </trkpt>
      <trkpt lat="49.57308" lon="1.11159">
        <ele>171</ele>
        <time>2021-07-01T14:22:05Z</time>
      </trkpt>
      <trkpt lat="49.57324" lon="1.11176">
        <ele>171</ele>
        <time>2021-07-01T14:22:23Z</time>
      </trkpt>
      <trkpt lat="49.57345" lon="1.11191">
        <ele>172</ele>
        <time>2021-07-01T14:22:42Z</time>
      </trkpt>
      <trkpt lat="49.5736" lon="1.11201">
        <ele>172</ele>
        <time>2021-07-01T14:22:58Z</time>
      </trkpt>
      <trkpt lat="49.57363" lon="1.11203">
        <ele>171</ele>
        <time>2021-07-01T14:23:01Z</time>
      </trkpt>
      <trkpt lat="49.57374" lon="1.11211">
        <ele>171</ele>
        <time>2021-07-01T14:23:15Z</time>
      </trkpt>
      <trkpt lat="49.57401" lon="1.11233">
        <ele>170</ele>
        <time>2021-07-01T14:23:42Z</time>
      </trkpt>
      <trkpt lat="49.57432" lon="1.11257">
        <ele>170</ele>
        <time>2021-07-01T14:24:11Z</time>
      </trkpt>
      <trkpt lat="49.5745" lon="1.11267">
        <ele>170</ele>
        <time>2021-07-01T14:24:26Z</time>
      </trkpt>
      <trkpt lat="49.57475" lon="1.11287">
        <ele>169</ele>
        <time>2021-07-01T14:24:50Z</time>
      </trkpt>
      <trkpt lat="49.57505" lon="1.11309">
        <ele>168</ele>
        <time>2021-07-01T14:25:17Z</time>
      </trkpt>
      <trkpt lat="49.57541" lon="1.11335">
        <ele>167</ele>
        <time>2021-07-01T14:25:50Z</time>
      </trkpt>
      <trkpt lat="49.57544" lon="1.11335">
        <ele>167</ele>
        <time>2021-07-01T14:26:08Z</time>
      </trkpt>
      <trkpt lat="49.57545" lon="1.11332">
        <ele>168</ele>
        <time>2021-07-01T14:26:56Z</time>
      </trkpt>
      <trkpt lat="49.57544" lon="1.11332">
        <ele>168</ele>
        <time>2021-07-01T14:27:07Z</time>
      </trkpt>
      <trkpt lat="49.57544" lon="1.11332">
        <ele>168</ele>
        <time>2021-07-01T14:27:37Z</time>
      </trkpt>
      <trkpt lat="49.57544" lon="1.11336">
        <ele>167</ele>
        <time>2021-07-01T14:28:04Z</time>
      </trkpt>
      <trkpt lat="49.57549" lon="1.1134">
        <ele>167</ele>
        <time>2021-07-01T14:28:14Z</time>
      </trkpt>
      <trkpt lat="49.57581" lon="1.11363">
        <ele>167</ele>
        <time>2021-07-01T14:28:44Z</time>
      </trkpt>
      <trkpt lat="49.57585" lon="1.11367">
        <ele>167</ele>
        <time>2021-07-01T14:28:59Z</time>
      </trkpt>
      <trkpt lat="49.57608" lon="1.11385">
        <ele>167</ele>
        <time>2021-07-01T14:29:20Z</time>
      </trkpt>
      <trkpt lat="49.57614" lon="1.11388">
        <ele>168</ele>
        <time>2021-07-01T14:29:26Z</time>
      </trkpt>
      <trkpt lat="49.57644" lon="1.11423">
        <ele>170</ele>
        <time>2021-07-01T14:29:56Z</time>
      </trkpt>
      <trkpt lat="49.57657" lon="1.11464">
        <ele>173</ele>
        <time>2021-07-01T14:30:20Z</time>
      </trkpt>
      <trkpt lat="49.5766" lon="1.11491">
        <ele>174</ele>
        <time>2021-07-01T14:30:36Z</time>
      </trkpt>
      <trkpt lat="49.57662" lon="1.115">
        <ele>174</ele>
        <time>2021-07-01T14:30:41Z</time>
      </trkpt>
      <trkpt lat="49.5767" lon="1.11527">
        <ele>174</ele>
        <time>2021-07-01T14:31:01Z</time>
      </trkpt>
      <trkpt lat="49.57678" lon="1.11579">
        <ele>172</ele>
        <time>2021-07-01T14:31:26Z</time>
      </trkpt>
      <trkpt lat="49.57682" lon="1.1161">
        <ele>170</ele>
        <time>2021-07-01T14:31:43Z</time>
      </trkpt>
      <trkpt lat="49.57686" lon="1.11643">
        <ele>169</ele>
        <time>2021-07-01T14:32:01Z</time>
      </trkpt>
      <trkpt lat="49.57688" lon="1.11651">
        <ele>169</ele>
        <time>2021-07-01T14:32:06Z</time>
      </trkpt>
      <trkpt lat="49.57692" lon="1.11681">
        <ele>167</ele>
        <time>2021-07-01T14:32:23Z</time>
      </trkpt>
      <trkpt lat="49.57692" lon="1.11682">
        <ele>167</ele>
        <time>2021-07-01T14:32:32Z</time>
      </trkpt>
      <trkpt lat="49.57693" lon="1.11688">
        <ele>167</ele>
        <time>2021-07-01T14:32:35Z</time>
      </trkpt>
      <trkpt lat="49.57699" lon="1.11751">
        <ele>164</ele>
        <time>2021-07-01T14:33:06Z</time>
      </trkpt>
      <trkpt lat="49.57707" lon="1.11805">
        <ele>163</ele>
        <time>2021-07-01T14:33:35Z</time>
      </trkpt>
      <trkpt lat="49.57725" lon="1.11837">
        <ele>162</ele>
        <time>2021-07-01T14:33:59Z</time>
      </trkpt>
      <trkpt lat="49.57752" lon="1.11835">
        <ele>163</ele>
        <time>2021-07-01T14:34:22Z</time>
      </trkpt>
      <trkpt lat="49.57762" lon="1.11835">
        <ele>163</ele>
        <time>2021-07-01T14:34:30Z</time>
      </trkpt>
      <trkpt lat="49.57768" lon="1.11833">
        <ele>163</ele>
        <time>2021-07-01T14:34:38Z</time>
      </trkpt>
      <trkpt lat="49.57789" lon="1.11833">
        <ele>163</ele>
        <time>2021-07-01T14:34:56Z</time>
      </trkpt>
      <trkpt lat="49.57814" lon="1.11833">
        <ele>163</ele>
        <time>2021-07-01T14:35:15Z</time>
      </trkpt>
      <trkpt lat="49.5785" lon="1.1183">
        <ele>163</ele>
        <time>2021-07-01T14:35:44Z</time>
      </trkpt>
      <trkpt lat="49.57878" lon="1.1183">
        <ele>163</ele>
        <time>2021-07-01T14:36:08Z</time>
      </trkpt>
      <trkpt lat="49.57899" lon="1.1183">
        <ele>164</ele>
        <time>2021-07-01T14:36:26Z</time>
      </trkpt>
      <trkpt lat="49.57918" lon="1.1183">
        <ele>165</ele>
        <time>2021-07-01T14:36:42Z</time>
      </trkpt>
      <trkpt lat="49.57939" lon="1.11822">
        <ele>166</ele>
        <time>2021-07-01T14:36:59Z</time>
      </trkpt>
      <trkpt lat="49.57964" lon="1.11825">
        <ele>166</ele>
        <time>2021-07-01T14:37:21Z</time>
      </trkpt>
      <trkpt lat="49.57997" lon="1.11825">
        <ele>165</ele>
        <time>2021-07-01T14:37:46Z</time>
      </trkpt>
      <trkpt lat="49.58016" lon="1.11823">
        <ele>164</ele>
        <time>2021-07-01T14:38:01Z</time>
      </trkpt>
      <trkpt lat="49.58036" lon="1.11822">
        <ele>163</ele>
        <time>2021-07-01T14:38:18Z</time>
      </trkpt>
      <trkpt lat="49.58076" lon="1.1182">
        <ele>162</ele>
        <time>2021-07-01T14:38:50Z</time>
      </trkpt>
      <trkpt lat="49.5812" lon="1.11818">
        <ele>161</ele>
        <time>2021-07-01T14:39:25Z</time>
      </trkpt>
      <trkpt lat="49.58149" lon="1.11816">
        <ele>161</ele>
        <time>2021-07-01T14:39:48Z</time>
      </trkpt>
      <trkpt lat="49.58181" lon="1.11816">
        <ele>161</ele>
        <time>2021-07-01T14:40:12Z</time>
      </trkpt>
      <trkpt lat="49.58225" lon="1.11819">
        <ele>160</ele>
        <time>2021-07-01T14:40:46Z</time>
      </trkpt>
      <trkpt lat="49.58251" lon="1.11821">
        <ele>160</ele>
        <time>2021-07-01T14:41:07Z</time>
      </trkpt>
      <trkpt lat="49.58275" lon="1.11824">
        <ele>161</ele>
        <time>2021-07-01T14:41:26Z</time>
      </trkpt>
      <trkpt lat="49.58303" lon="1.11822">
        <ele>161</ele>
        <time>2021-07-01T14:41:48Z</time>
      </trkpt>
      <trkpt lat="49.58312" lon="1.1182">
        <ele>162</ele>
        <time>2021-07-01T14:42:03Z</time>
      </trkpt>
      <trkpt lat="49.58313" lon="1.1182">
        <ele>162</ele>
        <time>2021-07-01T14:42:04Z</time>
      </trkpt>
      <trkpt lat="49.58318" lon="1.11818">
        <ele>162</ele>
        <time>2021-07-01T14:42:09Z</time>
      </trkpt>
      <trkpt lat="49.58337" lon="1.11809">
        <ele>162</ele>
        <time>2021-07-01T14:42:27Z</time>
      </trkpt>
      <trkpt lat="49.58366" lon="1.11792">
        <ele>162</ele>
        <time>2021-07-01T14:42:54Z</time>
      </trkpt>
      <trkpt lat="49.58397" lon="1.11775">
        <ele>163</ele>
        <time>2021-07-01T14:43:21Z</time>
      </trkpt>
      <trkpt lat="49.5843" lon="1.11761">
        <ele>163</ele>
        <time>2021-07-01T14:43:50Z</time>
      </trkpt>
      <trkpt lat="49.58459" lon="1.11753">
        <ele>163</ele>
        <time>2021-07-01T14:44:14Z</time>
      </trkpt>
      <trkpt lat="49.58475" lon="1.11747">
        <ele>164</ele>
        <time>2021-07-01T14:44:29Z</time>
      </trkpt>
      <trkpt lat="49.5848" lon="1.11747">
        <ele>164</ele>
        <time>2021-07-01T14:44:33Z</time>
      </trkpt>
      <trkpt lat="49.58501" lon="1.11747">
        <ele>163</ele>
        <time>2021-07-01T14:44:52Z</time>
      </trkpt>
      <trkpt lat="49.58542" lon="1.11745">
        <ele>163</ele>
        <time>2021-07-01T14:45:25Z</time>
      </trkpt>
      <trkpt lat="49.58577" lon="1.11737">
        <ele>162</ele>
        <time>2021-07-01T14:45:54Z</time>
      </trkpt>
      <trkpt lat="49.58611" lon="1.11728">
        <ele>161</ele>
        <time>2021-07-01T14:46:22Z</time>
      </trkpt>
      <trkpt lat="49.58642" lon="1.11722">
        <ele>160</ele>
        <time>2021-07-01T14:46:46Z</time>
      </trkpt>
      <trkpt lat="49.58645" lon="1.11722">
        <ele>160</ele>
        <time>2021-07-01T14:47:04Z</time>
      </trkpt>
      <trkpt lat="49.58648" lon="1.1172">
        <ele>160</ele>
        <time>2021-07-01T14:47:29Z</time>
      </trkpt>
      <trkpt lat="49.5865" lon="1.11721">
        <ele>160</ele>
        <time>2021-07-01T14:47:31Z</time>
      </trkpt>
      <trkpt lat="49.58678" lon="1.11714">
        <ele>159</ele>
        <time>2021-07-01T14:47:54Z</time>
      </trkpt>
      <trkpt lat="49.58685" lon="1.11712">
        <ele>158</ele>
        <time>2021-07-01T14:48:00Z</time>
      </trkpt>
      <trkpt lat="49.58713" lon="1.11711">
        <ele>157</ele>
        <time>2021-07-01T14:48:23Z</time>
      </trkpt>
      <trkpt lat="49.58753" lon="1.11707">
        <ele>157</ele>
        <time>2021-07-01T14:48:55Z</time>
      </trkpt>
      <trkpt lat="49.58789" lon="1.11703">
        <ele>158</ele>
        <time>2021-07-01T14:49:24Z</time>
      </trkpt>
      <trkpt lat="49.58818" lon="1.117">
        <ele>158</ele>
        <time>2021-07-01T14:49:48Z</time>
      </trkpt>
      <trkpt lat="49.58825" lon="1.11697">
        <ele>158</ele>
        <time>2021-07-01T14:50:01Z</time>
      </trkpt>
      <trkpt lat="49.5883" lon="1.11695">
        <ele>158</ele>
        <time>2021-07-01T14:50:17Z</time>
      </trkpt>
      <trkpt lat="49.58832" lon="1.11696">
        <ele>158</ele>
        <time>2021-07-01T14:50:26Z</time>
      </trkpt>
      <trkpt lat="49.58834" lon="1.11696">
        <ele>158</ele>
        <time>2021-07-01T14:50:28Z</time>
      </trkpt>
      <trkpt lat="49.58856" lon="1.11691">
        <ele>159</ele>
        <time>2021-07-01T14:50:45Z</time>
      </trkpt>
      <trkpt lat="49.58885" lon="1.11684">
        <ele>159</ele>
        <time>2021-07-01T14:51:08Z</time>
      </trkpt>
      <trkpt lat="49.58905" lon="1.11681">
        <ele>159</ele>
        <time>2021-07-01T14:51:27Z</time>
      </trkpt>
      <trkpt lat="49.5891" lon="1.11681">
        <ele>159</ele>
        <time>2021-07-01T14:51:32Z</time>
      </trkpt>
      <trkpt lat="49.58913" lon="1.1168">
        <ele>159</ele>
        <time>2021-07-01T14:51:34Z</time>
      </trkpt>
      <trkpt lat="49.58938" lon="1.11678">
        <ele>160</ele>
        <time>2021-07-01T14:51:54Z</time>
      </trkpt>
      <trkpt lat="49.5896" lon="1.11671">
        <ele>160</ele>
        <time>2021-07-01T14:52:13Z</time>
      </trkpt>
      <trkpt lat="49.5897" lon="1.11668">
        <ele>160</ele>
        <time>2021-07-01T14:52:31Z</time>
      </trkpt>
      <trkpt lat="49.58971" lon="1.11668">
        <ele>160</ele>
        <time>2021-07-01T14:52:34Z</time>
      </trkpt>
      <trkpt lat="49.58974" lon="1.11667">
        <ele>161</ele>
        <time>2021-07-01T14:52:37Z</time>
      </trkpt>
      <trkpt lat="49.58999" lon="1.11654">
        <ele>161</ele>
        <time>2021-07-01T14:52:58Z</time>
      </trkpt>
      <trkpt lat="49.59017" lon="1.11644">
        <ele>161</ele>
        <time>2021-07-01T14:53:15Z</time>
      </trkpt>
      <trkpt lat="49.59049" lon="1.11629">
        <ele>161</ele>
        <time>2021-07-01T14:53:41Z</time>
      </trkpt>
      <trkpt lat="49.59056" lon="1.11626">
        <ele>161</ele>
        <time>2021-07-01T14:53:52Z</time>
      </trkpt>
      <trkpt lat="49.59059" lon="1.11625">
        <ele>161</ele>
        <time>2021-07-01T14:53:55Z</time>
      </trkpt>
      <trkpt lat="49.59096" lon="1.11611">
        <ele>159</ele>
        <time>2021-07-01T14:54:27Z</time>
      </trkpt>
      <trkpt lat="49.59137" lon="1.11599">
        <ele>158</ele>
        <time>2021-07-01T14:55:02Z</time>
      </trkpt>
      <trkpt lat="49.59161" lon="1.11591">
        <ele>157</ele>
        <time>2021-07-01T14:55:24Z</time>
      </trkpt>
      <trkpt lat="49.59193" lon="1.11584">
        <ele>157</ele>
        <time>2021-07-01T14:55:52Z</time>
      </trkpt>
      <trkpt lat="49.59225" lon="1.11571">
        <ele>157</ele>
        <time>2021-07-01T14:56:22Z</time>
      </trkpt>
      <trkpt lat="49.59258" lon="1.11553">
        <ele>155</ele>
        <time>2021-07-01T14:56:51Z</time>
      </trkpt>
      <trkpt lat="49.59274" lon="1.11544">
        <ele>154</ele>
        <time>2021-07-01T14:57:06Z</time>
      </trkpt>
      <trkpt lat="49.59296" lon="1.11528">
        <ele>154</ele>
        <time>2021-07-01T14:57:30Z</time>
      </trkpt>
      <trkpt lat="49.593" lon="1.11526">
        <ele>154</ele>
        <time>2021-07-01T14:57:34Z</time>
      </trkpt>
      <trkpt lat="49.59337" lon="1.11506">
        <ele>153</ele>
        <time>2021-07-01T14:58:07Z</time>
      </trkpt>
      <trkpt lat="49.59363" lon="1.11493">
        <ele>153</ele>
        <time>2021-07-01T14:58:28Z</time>
      </trkpt>
      <trkpt lat="49.59379" lon="1.1149">
        <ele>153</ele>
        <time>2021-07-01T14:58:43Z</time>
      </trkpt>
      <trkpt lat="49.59388" lon="1.11492">
        <ele>153</ele>
        <time>2021-07-01T14:58:52Z</time>
      </trkpt>
      <trkpt lat="49.59405" lon="1.11491">
        <ele>153</ele>
        <time>2021-07-01T14:59:08Z</time>
      </trkpt>
      <trkpt lat="49.59418" lon="1.11482">
        <ele>154</ele>
        <time>2021-07-01T14:59:22Z</time>
      </trkpt>
      <trkpt lat="49.59432" lon="1.11478">
        <ele>156</ele>
        <time>2021-07-01T14:59:33Z</time>
      </trkpt>
      <trkpt lat="49.59452" lon="1.11475">
        <ele>158</ele>
        <time>2021-07-01T14:59:49Z</time>
      </trkpt>
      <trkpt lat="49.59475" lon="1.11473">
        <ele>159</ele>
        <time>2021-07-01T15:00:14Z</time>
      </trkpt>
      <trkpt lat="49.59494" lon="1.11466">
        <ele>159</ele>
        <time>2021-07-01T15:00:28Z</time>
      </trkpt>
      <trkpt lat="49.59502" lon="1.11464">
        <ele>160</ele>
        <time>2021-07-01T15:00:33Z</time>
      </trkpt>
      <trkpt lat="49.59511" lon="1.11454">
        <ele>160</ele>
        <time>2021-07-01T15:00:40Z</time>
      </trkpt>
      <trkpt lat="49.59532" lon="1.11435">
        <ele>158</ele>
        <time>2021-07-01T15:00:54Z</time>
      </trkpt>
      <trkpt lat="49.59548" lon="1.11424">
        <ele>157</ele>
        <time>2021-07-01T15:01:09Z</time>
      </trkpt>
      <trkpt lat="49.59569" lon="1.1142">
        <ele>155</ele>
        <time>2021-07-01T15:01:29Z</time>
      </trkpt>
      <trkpt lat="49.59588" lon="1.11422">
        <ele>153</ele>
        <time>2021-07-01T15:01:48Z</time>
      </trkpt>
      <trkpt lat="49.59606" lon="1.11421">
        <ele>150</ele>
        <time>2021-07-01T15:02:04Z</time>
      </trkpt>
      <trkpt lat="49.59621" lon="1.11425">
        <ele>147</ele>
        <time>2021-07-01T15:02:17Z</time>
      </trkpt>
      <trkpt lat="49.59645" lon="1.11427">
        <ele>141</ele>
        <time>2021-07-01T15:02:35Z</time>
      </trkpt>
      <trkpt lat="49.59665" lon="1.11435">
        <ele>136</ele>
        <time>2021-07-01T15:02:55Z</time>
      </trkpt>
      <trkpt lat="49.59677" lon="1.11444">
        <ele>135</ele>
        <time>2021-07-01T15:03:05Z</time>
      </trkpt>
      <trkpt lat="49.59698" lon="1.11456">
        <ele>131</ele>
        <time>2021-07-01T15:03:26Z</time>
      </trkpt>
      <trkpt lat="49.59715" lon="1.11462">
        <ele>128</ele>
        <time>2021-07-01T15:03:43Z</time>
      </trkpt>
      <trkpt lat="49.59735" lon="1.11467">
        <ele>124</ele>
        <time>2021-07-01T15:04:05Z</time>
      </trkpt>
      <trkpt lat="49.59751" lon="1.1147">
        <ele>121</ele>
        <time>2021-07-01T15:04:21Z</time>
      </trkpt>
      <trkpt lat="49.59759" lon="1.11466">
        <ele>119</ele>
        <time>2021-07-01T15:04:41Z</time>
      </trkpt>
      <trkpt lat="49.59782" lon="1.11455">
        <ele>115</ele>
        <time>2021-07-01T15:04:57Z</time>
      </trkpt>
      <trkpt lat="49.59803" lon="1.11437">
        <ele>111</ele>
        <time>2021-07-01T15:05:13Z</time>
      </trkpt>
      <trkpt lat="49.59819" lon="1.11413">
        <ele>108</ele>
        <time>2021-07-01T15:05:26Z</time>
      </trkpt>
      <trkpt lat="49.5983" lon="1.11387">
        <ele>104</ele>
        <time>2021-07-01T15:05:41Z</time>
      </trkpt>
      <trkpt lat="49.59841" lon="1.1138">
        <ele>101</ele>
        <time>2021-07-01T15:05:54Z</time>
      </trkpt>
      <trkpt lat="49.59842" lon="1.11375">
        <ele>100</ele>
        <time>2021-07-01T15:05:58Z</time>
      </trkpt>
      <trkpt lat="49.59841" lon="1.11374">
        <ele>100</ele>
        <time>2021-07-01T15:05:59Z</time>
      </trkpt>
      <trkpt lat="49.59841" lon="1.11372">
        <ele>99</ele>
        <time>2021-07-01T15:06:00Z</time>
      </trkpt>
      <trkpt lat="49.59841" lon="1.1137">
        <ele>99</ele>
        <time>2021-07-01T15:06:01Z</time>
      </trkpt>
      <trkpt lat="49.59842" lon="1.11368">
        <ele>99</ele>
        <time>2021-07-01T15:06:02Z</time>
      </trkpt>
      <trkpt lat="49.59842" lon="1.11366">
        <ele>98</ele>
        <time>2021-07-01T15:06:03Z</time>
      </trkpt>
      <trkpt lat="49.59839" lon="1.11365">
        <ele>99</ele>
        <time>2021-07-01T15:06:04Z</time>
      </trkpt>
      <trkpt lat="49.59839" lon="1.11364">
        <ele>98</ele>
        <time>2021-07-01T15:06:05Z</time>
      </trkpt>
      <trkpt lat="49.59839" lon="1.11362">
        <ele>98</ele>
        <time>2021-07-01T15:06:06Z</time>
      </trkpt>
      <trkpt lat="49.59845" lon="1.11342">
        <ele>96</ele>
        <time>2021-07-01T15:06:22Z</time>
      </trkpt>
      <trkpt lat="49.59845" lon="1.1134">
        <ele>96</ele>
        <time>2021-07-01T15:06:23Z</time>
      </trkpt>
      <trkpt lat="49.59846" lon="1.11338">
        <ele>95</ele>
        <time>2021-07-01T15:06:24Z</time>
      </trkpt>
      <trkpt lat="49.59846" lon="1.11337">
        <ele>95</ele>
        <time>2021-07-01T15:06:25Z</time>
      </trkpt>
      <trkpt lat="49.59846" lon="1.11335">
        <ele>95</ele>
        <time>2021-07-01T15:06:26Z</time>
      </trkpt>
      <trkpt lat="49.59852" lon="1.1131">
        <ele>94</ele>
        <time>2021-07-01T15:06:42Z</time>
      </trkpt>
      <trkpt lat="49.59852" lon="1.11309">
        <ele>94</ele>
        <time>2021-07-01T15:06:43Z</time>
      </trkpt>
      <trkpt lat="49.59864" lon="1.11268">
        <ele>94</ele>
        <time>2021-07-01T15:07:07Z</time>
      </trkpt>
      <trkpt lat="49.59855" lon="1.11238">
        <ele>95</ele>
        <time>2021-07-01T15:07:25Z</time>
      </trkpt>
      <trkpt lat="49.59849" lon="1.11225">
        <ele>95</ele>
        <time>2021-07-01T15:07:34Z</time>
      </trkpt>
      <trkpt lat="49.59847" lon="1.11224">
        <ele>95</ele>
        <time>2021-07-01T15:07:35Z</time>
      </trkpt>
      <trkpt lat="49.59846" lon="1.11223">
        <ele>95</ele>
        <time>2021-07-01T15:07:36Z</time>
      </trkpt>
      <trkpt lat="49.59845" lon="1.11222">
        <ele>95</ele>
        <time>2021-07-01T15:07:37Z</time>
      </trkpt>
      <trkpt lat="49.59844" lon="1.1122">
        <ele>95</ele>
        <time>2021-07-01T15:07:38Z</time>
      </trkpt>
      <trkpt lat="49.59844" lon="1.11219">
        <ele>95</ele>
        <time>2021-07-01T15:07:39Z</time>
      </trkpt>
      <trkpt lat="49.59837" lon="1.11183">
        <ele>94</ele>
        <time>2021-07-01T15:08:00Z</time>
      </trkpt>
      <trkpt lat="49.59838" lon="1.1118">
        <ele>94</ele>
        <time>2021-07-01T15:08:02Z</time>
      </trkpt>
      <trkpt lat="49.59853" lon="1.1114">
        <ele>93</ele>
        <time>2021-07-01T15:08:27Z</time>
      </trkpt>
      <trkpt lat="49.59873" lon="1.11082">
        <ele>93</ele>
        <time>2021-07-01T15:09:02Z</time>
      </trkpt>
      <trkpt lat="49.59874" lon="1.11069">
        <ele>93</ele>
        <time>2021-07-01T15:09:12Z</time>
      </trkpt>
      <trkpt lat="49.59872" lon="1.11072">
        <ele>93</ele>
        <time>2021-07-01T15:09:24Z</time>
      </trkpt>
      <trkpt lat="49.59867" lon="1.11058">
        <ele>93</ele>
        <time>2021-07-01T15:09:34Z</time>
      </trkpt>
      <trkpt lat="49.59867" lon="1.11055">
        <ele>93</ele>
        <time>2021-07-01T15:09:35Z</time>
      </trkpt>
      <trkpt lat="49.59867" lon="1.11051">
        <ele>93</ele>
        <time>2021-07-01T15:09:37Z</time>
      </trkpt>
      <trkpt lat="49.59866" lon="1.1105">
        <ele>93</ele>
        <time>2021-07-01T15:09:38Z</time>
      </trkpt>
      <trkpt lat="49.59866" lon="1.11049">
        <ele>93</ele>
        <time>2021-07-01T15:09:39Z</time>
      </trkpt>
      <trkpt lat="49.59864" lon="1.11049">
        <ele>93</ele>
        <time>2021-07-01T15:09:40Z</time>
      </trkpt>
      <trkpt lat="49.59848" lon="1.11054">
        <ele>93</ele>
        <time>2021-07-01T15:09:54Z</time>
      </trkpt>
      <trkpt lat="49.59838" lon="1.11054">
        <ele>93</ele>
        <time>2021-07-01T15:10:03Z</time>
      </trkpt>
      <trkpt lat="49.59832" lon="1.11052">
        <ele>93</ele>
        <time>2021-07-01T15:10:08Z</time>
      </trkpt>
      <trkpt lat="49.59821" lon="1.1105">
        <ele>93</ele>
        <time>2021-07-01T15:10:20Z</time>
      </trkpt>
      <trkpt lat="49.59821" lon="1.1105">
        <ele>93</ele>
        <time>2021-07-01T15:10:21Z</time>
      </trkpt>
      <trkpt lat="49.5982" lon="1.11048">
        <ele>93</ele>
        <time>2021-07-01T15:10:27Z</time>
      </trkpt>
      <trkpt lat="49.59818" lon="1.11048">
        <ele>93</ele>
        <time>2021-07-01T15:10:29Z</time>
      </trkpt>
      <trkpt lat="49.5981" lon="1.11044">
        <ele>93</ele>
        <time>2021-07-01T15:10:36Z</time>
      </trkpt>
      <trkpt lat="49.5979" lon="1.11055">
        <ele>93</ele>
        <time>2021-07-01T15:10:53Z</time>
      </trkpt>
      <trkpt lat="49.59781" lon="1.11059">
        <ele>93</ele>
        <time>2021-07-01T15:11:00Z</time>
      </trkpt>
      <trkpt lat="49.59777" lon="1.11065">
        <ele>93</ele>
        <time>2021-07-01T15:11:04Z</time>
      </trkpt>
      <trkpt lat="49.59765" lon="1.11073">
        <ele>92</ele>
        <time>2021-07-01T15:11:14Z</time>
      </trkpt>
      <trkpt lat="49.59758" lon="1.11076">
        <ele>92</ele>
        <time>2021-07-01T15:11:28Z</time>
      </trkpt>
      <trkpt lat="49.59735" lon="1.11082">
        <ele>91</ele>
        <time>2021-07-01T15:11:47Z</time>
      </trkpt>
      <trkpt lat="49.59713" lon="1.11083">
        <ele>91</ele>
        <time>2021-07-01T15:12:06Z</time>
      </trkpt>
      <trkpt lat="49.59696" lon="1.11077">
        <ele>91</ele>
        <time>2021-07-01T15:12:20Z</time>
      </trkpt>
      <trkpt lat="49.59679" lon="1.1107">
        <ele>92</ele>
        <time>2021-07-01T15:12:34Z</time>
      </trkpt>
      <trkpt lat="49.59676" lon="1.11068">
        <ele>93</ele>
        <time>2021-07-01T15:12:37Z</time>
      </trkpt>
      <trkpt lat="49.59666" lon="1.11059">
        <ele>93</ele>
        <time>2021-07-01T15:12:45Z</time>
      </trkpt>
      <trkpt lat="49.59643" lon="1.11037">
        <ele>94</ele>
        <time>2021-07-01T15:13:06Z</time>
      </trkpt>
      <trkpt lat="49.5963" lon="1.11012">
        <ele>94</ele>
        <time>2021-07-01T15:13:25Z</time>
      </trkpt>
      <trkpt lat="49.5963" lon="1.11004">
        <ele>94</ele>
        <time>2021-07-01T15:13:44Z</time>
      </trkpt>
      <trkpt lat="49.59628" lon="1.11006">
        <ele>94</ele>
        <time>2021-07-01T15:14:00Z</time>
      </trkpt>
      <trkpt lat="49.59627" lon="1.11006">
        <ele>94</ele>
        <time>2021-07-01T15:14:13Z</time>
      </trkpt>
    </trkseg>
  </trk>
</gpx>